Time,TemperatureF,DewpointF,PressureIn,WindDirection,WindDirectionDegrees,WindSpeedMPH,WindSpeedGustMPH,Humidity,HourlyPrecipIn,Conditions,Clouds,dailyrainin,SoftwareType,DateUTC
2013-01-13 00:00:00,27.5,24.8,29.84,East,90,0.0,0.0,89,0.00,,,0.00,WUHU216HW,2013-01-13 08:00:00,
2013-01-13 00:01:00,27.5,24.8,29.84,East,90,0.0,0.0,89,0.00,,,0.00,WUHU216HW,2013-01-13 08:01:00,
2013-01-13 00:02:00,27.7,24.9,29.84,East,90,0.0,0.0,89,0.00,,,0.00,WUHU216HW,2013-01-13 08:02:00,
2013-01-13 00:04:00,27.7,24.9,29.84,East,90,0.0,0.0,89,0.00,,,0.00,WUHU216HW,2013-01-13 08:04:00,
2013-01-13 00:05:00,27.7,24.9,29.84,East,90,0.0,0.0,89,0.00,,,0.00,WUHU216HW,2013-01-13 08:05:00,
2013-01-13 00:06:00,27.7,24.9,29.84,East,90,0.0,0.0,89,0.00,,,0.00,WUHU216HW,2013-01-13 08:06:00,
2013-01-13 00:08:00,27.7,24.9,29.84,East,90,0.0,0.0,89,0.00,,,0.00,WUHU216HW,2013-01-13 08:08:00,
2013-01-13 00:10:00,27.7,24.9,29.84,East,90,0.0,0.0,89,0.00,,,0.00,WUHU216HW,2013-01-13 08:10:00,
2013-01-13 00:35:00,28.4,25.9,29.84,East,90,0.0,0.0,90,0.00,,,0.00,WUHU216HW,2013-01-13 08:35:00,
2013-01-13 00:40:00,28.6,26.1,29.84,East,90,0.0,0.0,90,0.00,,,0.00,WUHU216HW,2013-01-13 08:40:00,
2013-01-13 00:45:00,28.8,26.3,29.84,East,90,0.0,0.0,90,0.00,,,0.00,WUHU216HW,2013-01-13 08:45:00,
2013-01-13 00:50:00,29.0,26.5,29.84,East,90,0.0,0.0,90,0.00,,,0.00,WUHU216HW,2013-01-13 08:50:00,
2013-01-13 00:55:00,29.0,26.5,29.83,East,90,0.0,0.0,90,0.00,,,0.00,WUHU216HW,2013-01-13 08:55:00,
2013-01-13 01:00:00,29.0,26.5,29.84,East,90,0.0,0.0,90,0.00,,,0.00,WUHU216HW,2013-01-13 09:00:00,
2013-01-13 01:01:00,29.0,26.5,29.84,East,90,0.0,0.0,90,0.00,,,0.00,WUHU216HW,2013-01-13 09:01:00,
2013-01-13 01:05:00,29.0,26.5,29.84,East,90,0.0,0.0,90,0.00,,,0.00,WUHU216HW,2013-01-13 09:05:00,
2013-01-13 01:06:00,29.0,26.5,29.84,East,90,0.0,0.0,90,0.00,,,0.00,WUHU216HW,2013-01-13 09:06:00,
2013-01-13 01:10:00,29.0,26.5,29.84,East,90,0.0,0.0,90,0.00,,,0.00,WUHU216HW,2013-01-13 09:10:00,
2013-01-13 01:11:00,29.0,26.5,29.84,East,90,0.0,0.0,90,0.00,,,0.00,WUHU216HW,2013-01-13 09:11:00,
2013-01-13 01:16:00,28.8,26.3,29.84,East,90,0.0,0.0,90,0.00,,,0.00,WUHU216HW,2013-01-13 09:16:00,
2013-01-13 01:21:00,28.8,26.3,29.85,East,90,0.0,0.0,90,0.00,,,0.00,WUHU216HW,2013-01-13 09:21:00,
2013-01-13 01:26:00,28.8,26.3,29.84,East,90,0.0,0.0,90,0.00,,,0.00,WUHU216HW,2013-01-13 09:26:00,
2013-01-13 01:27:00,28.6,26.1,29.84,East,90,0.0,0.0,90,0.00,,,0.00,WUHU216HW,2013-01-13 09:27:00,
2013-01-13 01:31:00,28.6,26.1,29.84,East,90,0.0,0.0,90,0.00,,,0.00,WUHU216HW,2013-01-13 09:31:00,
2013-01-13 01:32:00,28.4,25.9,29.84,East,90,0.0,0.0,90,0.00,,,0.00,WUHU216HW,2013-01-13 09:32:00,
2013-01-13 01:36:00,28.4,25.9,29.84,East,90,0.0,0.0,90,0.00,,,0.00,WUHU216HW,2013-01-13 09:36:00,
2013-01-13 01:37:00,28.4,25.9,29.84,East,90,0.0,0.0,90,0.00,,,0.00,WUHU216HW,2013-01-13 09:37:00,
2013-01-13 02:04:00,27.7,25.2,29.84,East,90,0.0,0.0,90,0.00,,,0.00,WUHU216HW,2013-01-13 10:04:00,
2013-01-13 02:09:00,27.7,25.5,29.84,East,90,0.0,0.0,91,0.00,,,0.00,WUHU216HW,2013-01-13 10:09:00,
2013-01-13 02:14:00,27.7,25.5,29.85,East,90,0.0,0.0,91,0.00,,,0.00,WUHU216HW,2013-01-13 10:14:00,
2013-01-13 02:15:00,27.7,25.5,29.85,East,90,0.0,0.0,91,0.00,,,0.00,WUHU216HW,2013-01-13 10:15:00,
2013-01-13 02:19:00,27.7,25.5,29.85,East,90,0.0,0.0,91,0.00,,,0.00,WUHU216HW,2013-01-13 10:19:00,
2013-01-13 02:20:00,27.7,25.5,29.85,East,90,0.0,0.0,91,0.00,,,0.00,WUHU216HW,2013-01-13 10:20:00,
2013-01-13 02:24:00,27.9,25.7,29.85,East,90,0.0,0.0,91,0.00,,,0.00,WUHU216HW,2013-01-13 10:24:00,
2013-01-13 02:25:00,27.9,25.7,29.84,East,90,0.0,0.0,91,0.00,,,0.00,WUHU216HW,2013-01-13 10:25:00,
2013-01-13 02:29:00,28.1,25.8,29.84,East,90,0.0,0.0,91,0.00,,,0.00,WUHU216HW,2013-01-13 10:29:00,
2013-01-13 02:30:00,28.1,25.8,29.84,East,90,0.0,0.0,91,0.00,,,0.00,WUHU216HW,2013-01-13 10:30:00,
2013-01-13 02:34:00,28.3,26.0,29.84,East,90,0.0,0.0,91,0.00,,,0.00,WUHU216HW,2013-01-13 10:34:00,
2013-01-13 02:35:00,28.3,26.0,29.84,East,90,0.0,0.0,91,0.00,,,0.00,WUHU216HW,2013-01-13 10:35:00,
2013-01-13 02:39:00,28.4,26.2,29.85,East,90,0.0,0.0,91,0.00,,,0.00,WUHU216HW,2013-01-13 10:39:00,
2013-01-13 02:40:00,28.4,26.2,29.84,East,90,0.0,0.0,91,0.00,,,0.00,WUHU216HW,2013-01-13 10:40:00,
2013-01-13 02:44:00,28.4,26.2,29.84,East,90,0.0,0.0,91,0.00,,,0.00,WUHU216HW,2013-01-13 10:44:00,
2013-01-13 02:45:00,28.4,26.2,29.84,East,90,0.0,0.0,91,0.00,,,0.00,WUHU216HW,2013-01-13 10:45:00,
2013-01-13 02:46:00,28.4,26.2,29.84,East,90,0.0,0.0,91,0.00,,,0.00,WUHU216HW,2013-01-13 10:46:00,
2013-01-13 02:49:00,28.4,26.2,29.85,East,90,0.0,0.0,91,0.00,,,0.00,WUHU216HW,2013-01-13 10:49:00,
2013-01-13 02:50:00,28.4,26.2,29.85,East,90,0.0,0.0,91,0.00,,,0.00,WUHU216HW,2013-01-13 10:50:00,
2013-01-13 02:51:00,28.6,26.4,29.85,East,90,0.0,0.0,91,0.00,,,0.00,WUHU216HW,2013-01-13 10:51:00,
2013-01-13 02:54:00,28.6,26.4,29.85,East,90,0.0,0.0,91,0.00,,,0.00,WUHU216HW,2013-01-13 10:54:00,
2013-01-13 02:55:00,28.6,26.4,29.85,East,90,0.0,0.0,91,0.00,,,0.00,WUHU216HW,2013-01-13 10:55:00,
2013-01-13 02:56:00,28.6,26.4,29.85,East,90,0.0,0.0,91,0.00,,,0.00,WUHU216HW,2013-01-13 10:56:00,
2013-01-13 02:59:00,28.8,26.6,29.85,East,90,0.0,0.0,91,0.00,,,0.00,WUHU216HW,2013-01-13 10:59:00,
2013-01-13 03:00:00,28.8,26.6,29.85,East,90,0.0,0.0,91,0.00,,,0.00,WUHU216HW,2013-01-13 11:00:00,
2013-01-13 03:01:00,28.8,26.6,29.85,East,90,0.0,0.0,91,0.00,,,0.00,WUHU216HW,2013-01-13 11:01:00,
2013-01-13 03:04:00,28.8,26.6,29.85,East,90,0.0,0.0,91,0.00,,,0.00,WUHU216HW,2013-01-13 11:04:00,
2013-01-13 03:05:00,28.8,26.6,29.85,East,90,0.0,0.0,91,0.00,,,0.00,WUHU216HW,2013-01-13 11:05:00,
2013-01-13 03:06:00,29.0,26.7,29.85,East,90,0.0,0.0,91,0.00,,,0.00,WUHU216HW,2013-01-13 11:06:00,
2013-01-13 03:09:00,29.0,26.7,29.85,East,90,0.0,0.0,91,0.00,,,0.00,WUHU216HW,2013-01-13 11:09:00,
2013-01-13 03:10:00,29.0,26.7,29.85,East,90,0.0,0.0,91,0.00,,,0.00,WUHU216HW,2013-01-13 11:10:00,
2013-01-13 03:11:00,29.0,26.7,29.85,East,90,0.0,0.0,91,0.00,,,0.00,WUHU216HW,2013-01-13 11:11:00,
2013-01-13 03:12:00,29.0,26.7,29.85,East,90,0.0,0.0,91,0.00,,,0.00,WUHU216HW,2013-01-13 11:12:00,
2013-01-13 03:15:00,29.0,26.7,29.85,East,90,0.0,0.0,91,0.00,,,0.00,WUHU216HW,2013-01-13 11:15:00,
2013-01-13 03:16:00,29.0,26.7,29.85,East,90,0.0,0.0,91,0.00,,,0.00,WUHU216HW,2013-01-13 11:16:00,
2013-01-13 03:17:00,29.0,26.7,29.85,East,90,0.0,0.0,91,0.00,,,0.00,WUHU216HW,2013-01-13 11:17:00,
2013-01-13 03:20:00,29.0,26.7,29.85,East,90,0.0,0.0,91,0.00,,,0.00,WUHU216HW,2013-01-13 11:20:00,
2013-01-13 03:21:00,29.0,26.7,29.85,East,90,0.0,0.0,91,0.00,,,0.00,WUHU216HW,2013-01-13 11:21:00,
2013-01-13 03:22:00,29.0,26.7,29.85,East,90,0.0,0.0,91,0.00,,,0.00,WUHU216HW,2013-01-13 11:22:00,
2013-01-13 03:25:00,29.0,26.7,29.85,East,90,0.0,0.0,91,0.00,,,0.00,WUHU216HW,2013-01-13 11:25:00,
2013-01-13 03:26:00,29.0,26.7,29.85,East,90,0.0,0.0,91,0.00,,,0.00,WUHU216HW,2013-01-13 11:26:00,
2013-01-13 03:27:00,29.0,26.7,29.85,East,90,0.0,0.0,91,0.00,,,0.00,WUHU216HW,2013-01-13 11:27:00,
2013-01-13 03:30:00,29.0,26.7,29.85,East,90,0.0,0.0,91,0.00,,,0.00,WUHU216HW,2013-01-13 11:30:00,
2013-01-13 03:31:00,29.0,26.7,29.85,East,90,0.0,0.0,91,0.00,,,0.00,WUHU216HW,2013-01-13 11:31:00,
2013-01-13 03:32:00,29.2,26.9,29.85,East,90,0.0,0.0,91,0.00,,,0.00,WUHU216HW,2013-01-13 11:32:00,
2013-01-13 03:35:00,29.0,26.7,29.84,East,90,0.0,0.0,91,0.00,,,0.00,WUHU216HW,2013-01-13 11:35:00,
2013-01-13 03:36:00,29.0,26.7,29.84,East,90,0.0,0.0,91,0.00,,,0.00,WUHU216HW,2013-01-13 11:36:00,
2013-01-13 03:37:00,29.0,26.7,29.84,East,90,0.0,0.0,91,0.00,,,0.00,WUHU216HW,2013-01-13 11:37:00,
2013-01-13 03:40:00,29.0,26.7,29.84,East,90,0.0,0.0,91,0.00,,,0.00,WUHU216HW,2013-01-13 11:40:00,
2013-01-13 03:41:00,29.0,26.7,29.84,East,90,0.0,0.0,91,0.00,,,0.00,WUHU216HW,2013-01-13 11:41:00,
2013-01-13 03:42:00,29.2,26.9,29.84,East,90,0.0,0.0,91,0.00,,,0.00,WUHU216HW,2013-01-13 11:42:00,
2013-01-13 03:45:00,29.0,26.7,29.84,East,90,0.0,0.0,91,0.00,,,0.00,WUHU216HW,2013-01-13 11:45:00,
2013-01-13 03:46:00,29.0,26.7,29.84,East,90,0.0,0.0,91,0.00,,,0.00,WUHU216HW,2013-01-13 11:46:00,
2013-01-13 03:47:00,29.2,26.9,29.84,East,90,0.0,0.0,91,0.00,,,0.00,WUHU216HW,2013-01-13 11:47:00,
2013-01-13 03:51:00,29.2,26.9,29.84,East,90,0.0,0.0,91,0.00,,,0.00,WUHU216HW,2013-01-13 11:51:00,
2013-01-13 03:52:00,29.2,26.9,29.84,East,90,0.0,0.0,91,0.00,,,0.00,WUHU216HW,2013-01-13 11:52:00,
2013-01-13 03:53:00,29.2,26.9,29.84,East,90,0.0,0.0,91,0.00,,,0.00,WUHU216HW,2013-01-13 11:53:00,
2013-01-13 03:56:00,29.2,26.9,29.84,East,90,0.0,0.0,91,0.00,,,0.00,WUHU216HW,2013-01-13 11:56:00,
2013-01-13 03:57:00,29.2,26.9,29.84,East,90,0.0,0.0,91,0.00,,,0.00,WUHU216HW,2013-01-13 11:57:00,
2013-01-13 03:58:00,29.2,26.9,29.84,East,90,0.0,0.0,91,0.00,,,0.00,WUHU216HW,2013-01-13 11:58:00,
2013-01-13 04:01:00,29.2,26.9,29.84,East,90,0.0,0.0,91,0.00,,,0.00,WUHU216HW,2013-01-13 12:01:00,
2013-01-13 04:02:00,29.2,26.9,29.84,East,90,0.0,0.0,91,0.00,,,0.00,WUHU216HW,2013-01-13 12:02:00,
2013-01-13 04:03:00,29.2,26.9,29.84,East,90,0.0,0.0,91,0.00,,,0.00,WUHU216HW,2013-01-13 12:03:00,
2013-01-13 04:06:00,29.2,26.9,29.84,East,90,0.0,0.0,91,0.00,,,0.00,WUHU216HW,2013-01-13 12:06:00,
2013-01-13 04:08:00,29.2,26.9,29.84,East,90,0.0,0.0,91,0.00,,,0.00,WUHU216HW,2013-01-13 12:08:00,
2013-01-13 04:11:00,29.2,26.9,29.84,East,90,0.0,0.0,91,0.00,,,0.00,WUHU216HW,2013-01-13 12:11:00,
2013-01-13 04:13:00,29.2,26.9,29.84,East,90,0.0,0.0,91,0.00,,,0.00,WUHU216HW,2013-01-13 12:13:00,
2013-01-13 04:16:00,29.2,26.9,29.84,East,90,0.0,0.0,91,0.00,,,0.00,WUHU216HW,2013-01-13 12:16:00,
2013-01-13 04:18:00,29.3,27.1,29.83,East,90,0.0,0.0,91,0.00,,,0.00,WUHU216HW,2013-01-13 12:18:00,
2013-01-13 04:21:00,29.3,27.1,29.84,East,90,0.0,0.0,91,0.00,,,0.00,WUHU216HW,2013-01-13 12:21:00,
2013-01-13 04:22:00,29.3,27.1,29.84,East,90,0.0,0.0,91,0.00,,,0.00,WUHU216HW,2013-01-13 12:22:00,
2013-01-13 04:23:00,29.3,27.1,29.84,East,90,0.0,0.0,91,0.00,,,0.00,WUHU216HW,2013-01-13 12:23:00,
2013-01-13 04:24:00,29.3,27.1,29.84,East,90,0.0,0.0,91,0.00,,,0.00,WUHU216HW,2013-01-13 12:24:00,
2013-01-13 04:26:00,29.5,27.3,29.84,East,90,0.0,0.0,91,0.00,,,0.00,WUHU216HW,2013-01-13 12:26:00,
2013-01-13 04:27:00,29.5,27.3,29.84,East,90,0.0,0.0,91,0.00,,,0.00,WUHU216HW,2013-01-13 12:27:00,
2013-01-13 04:28:00,29.5,27.3,29.84,East,90,0.0,0.0,91,0.00,,,0.00,WUHU216HW,2013-01-13 12:28:00,
2013-01-13 04:29:00,29.5,27.3,29.84,East,90,0.0,0.0,91,0.00,,,0.00,WUHU216HW,2013-01-13 12:29:00,
2013-01-13 04:31:00,29.5,27.3,29.84,East,90,0.0,0.0,91,0.00,,,0.00,WUHU216HW,2013-01-13 12:31:00,
2013-01-13 04:32:00,29.5,27.3,29.84,East,90,0.0,0.0,91,0.00,,,0.00,WUHU216HW,2013-01-13 12:32:00,
2013-01-13 04:33:00,29.5,27.3,29.84,East,90,0.0,0.0,91,0.00,,,0.00,WUHU216HW,2013-01-13 12:33:00,
2013-01-13 04:34:00,29.5,27.3,29.84,East,90,0.0,0.0,91,0.00,,,0.00,WUHU216HW,2013-01-13 12:34:00,
2013-01-13 04:36:00,29.7,27.5,29.84,East,90,0.0,0.0,91,0.00,,,0.00,WUHU216HW,2013-01-13 12:36:00,
2013-01-13 04:37:00,29.7,27.5,29.84,East,90,0.0,0.0,91,0.00,,,0.00,WUHU216HW,2013-01-13 12:37:00,
2013-01-13 04:38:00,29.7,27.5,29.84,East,90,0.0,0.0,91,0.00,,,0.00,WUHU216HW,2013-01-13 12:38:00,
2013-01-13 04:39:00,29.7,27.5,29.84,East,90,0.0,0.0,91,0.00,,,0.00,WUHU216HW,2013-01-13 12:39:00,
2013-01-13 04:41:00,29.7,27.5,29.84,East,90,0.0,0.0,91,0.00,,,0.00,WUHU216HW,2013-01-13 12:41:00,
2013-01-13 04:42:00,29.7,27.5,29.84,East,90,0.0,0.0,91,0.00,,,0.00,WUHU216HW,2013-01-13 12:42:00,
2013-01-13 04:44:00,29.7,27.2,29.84,East,90,0.0,0.0,90,0.00,,,0.00,WUHU216HW,2013-01-13 12:44:00,
2013-01-13 04:47:00,29.7,27.2,29.84,East,90,0.0,0.0,90,0.00,,,0.00,WUHU216HW,2013-01-13 12:47:00,
2013-01-13 04:49:00,29.7,27.2,29.84,East,90,0.0,0.0,90,0.00,,,0.00,WUHU216HW,2013-01-13 12:49:00,
2013-01-13 04:52:00,29.9,27.4,29.84,East,90,0.0,0.0,90,0.00,,,0.00,WUHU216HW,2013-01-13 12:52:00,
2013-01-13 04:54:00,29.9,27.4,29.84,East,90,0.0,0.0,90,0.00,,,0.00,WUHU216HW,2013-01-13 12:54:00,
2013-01-13 04:55:00,29.9,27.4,29.84,East,90,0.0,0.0,90,0.00,,,0.00,WUHU216HW,2013-01-13 12:55:00,
2013-01-13 04:57:00,29.9,27.4,29.84,East,90,0.0,0.0,90,0.00,,,0.00,WUHU216HW,2013-01-13 12:57:00,
2013-01-13 04:59:00,29.9,27.4,29.84,East,90,0.0,0.0,90,0.00,,,0.00,WUHU216HW,2013-01-13 12:59:00,
2013-01-13 05:00:00,29.9,27.4,29.84,East,90,0.0,0.0,90,0.00,,,0.00,WUHU216HW,2013-01-13 13:00:00,
2013-01-13 05:01:00,30.1,27.5,29.84,East,90,0.0,0.0,90,0.00,,,0.00,WUHU216HW,2013-01-13 13:01:00,
2013-01-13 05:02:00,29.9,27.4,29.84,East,90,0.0,0.0,90,0.00,,,0.00,WUHU216HW,2013-01-13 13:02:00,
2013-01-13 05:04:00,29.9,27.4,29.84,East,90,0.0,0.0,90,0.00,,,0.00,WUHU216HW,2013-01-13 13:04:00,
2013-01-13 05:05:00,29.9,27.4,29.84,East,90,0.0,0.0,90,0.00,,,0.00,WUHU216HW,2013-01-13 13:05:00,
2013-01-13 05:07:00,30.1,27.5,29.84,East,90,0.0,0.0,90,0.00,,,0.00,WUHU216HW,2013-01-13 13:07:00,
2013-01-13 05:10:00,30.1,27.5,29.84,East,90,0.0,0.0,90,0.00,,,0.00,WUHU216HW,2013-01-13 13:10:00,
2013-01-13 05:36:00,30.1,27.5,29.84,East,90,0.0,0.0,90,0.00,,,0.00,WUHU216HW,2013-01-13 13:36:00,
2013-01-13 05:41:00,30.1,27.5,29.84,East,90,0.0,0.0,90,0.00,,,0.00,WUHU216HW,2013-01-13 13:41:00,
2013-01-13 05:46:00,29.9,27.1,29.84,East,90,0.0,0.0,89,0.00,,,0.00,WUHU216HW,2013-01-13 13:46:00,
2013-01-13 05:47:00,29.9,27.1,29.84,East,90,0.0,0.0,89,0.00,,,0.00,WUHU216HW,2013-01-13 13:47:00,
2013-01-13 05:51:00,29.7,26.9,29.84,East,90,0.0,0.0,89,0.00,,,0.00,WUHU216HW,2013-01-13 13:51:00,
2013-01-13 05:52:00,29.7,26.9,29.84,East,90,0.0,0.0,89,0.00,,,0.00,WUHU216HW,2013-01-13 13:52:00,
2013-01-13 05:56:00,29.5,26.7,29.84,East,90,0.0,0.0,89,0.00,,,0.00,WUHU216HW,2013-01-13 13:56:00,
2013-01-13 05:57:00,29.5,26.7,29.84,East,90,0.0,0.0,89,0.00,,,0.00,WUHU216HW,2013-01-13 13:57:00,
2013-01-13 06:01:00,29.3,26.6,29.84,East,90,0.0,0.0,89,0.00,,,0.00,WUHU216HW,2013-01-13 14:01:00,
2013-01-13 06:02:00,29.2,26.4,29.84,East,90,0.0,0.0,89,0.00,,,0.00,WUHU216HW,2013-01-13 14:02:00,
2013-01-13 06:06:00,29.2,26.6,29.84,East,90,0.0,0.0,90,0.00,,,0.00,WUHU216HW,2013-01-13 14:06:00,
2013-01-13 06:07:00,29.2,26.6,29.84,East,90,0.0,0.0,90,0.00,,,0.00,WUHU216HW,2013-01-13 14:07:00,
2013-01-13 06:12:00,29.2,26.6,29.84,East,90,0.0,0.0,90,0.00,,,0.00,WUHU216HW,2013-01-13 14:12:00,
2013-01-13 06:17:00,29.2,26.6,29.84,East,90,0.0,0.0,90,0.00,,,0.00,WUHU216HW,2013-01-13 14:17:00,
2013-01-13 06:22:00,29.3,26.8,29.85,East,90,0.0,0.0,90,0.00,,,0.00,WUHU216HW,2013-01-13 14:22:00,
2013-01-13 06:27:00,29.3,26.8,29.85,East,90,0.0,0.0,90,0.00,,,0.00,WUHU216HW,2013-01-13 14:27:00,
2013-01-13 06:32:00,29.5,27.3,29.84,East,90,0.0,0.0,91,0.00,,,0.00,WUHU216HW,2013-01-13 14:32:00,
2013-01-13 06:37:00,29.7,27.2,29.85,East,90,0.0,0.0,90,0.00,,,0.00,WUHU216HW,2013-01-13 14:37:00,
2013-01-13 06:38:00,29.7,27.2,29.85,East,90,0.0,0.0,90,0.00,,,0.00,WUHU216HW,2013-01-13 14:38:00,
2013-01-13 06:42:00,29.7,27.2,29.85,East,90,0.0,0.0,90,0.00,,,0.00,WUHU216HW,2013-01-13 14:42:00,
2013-01-13 06:43:00,29.7,27.2,29.85,East,90,0.0,0.0,90,0.00,,,0.00,WUHU216HW,2013-01-13 14:43:00,
2013-01-13 06:48:00,29.7,27.2,29.85,East,90,0.0,0.0,90,0.00,,,0.00,WUHU216HW,2013-01-13 14:48:00,
2013-01-13 06:53:00,29.7,27.2,29.85,East,90,0.0,0.0,90,0.00,,,0.00,WUHU216HW,2013-01-13 14:53:00,
2013-01-13 06:54:00,29.7,27.2,29.85,East,90,0.0,0.0,90,0.00,,,0.00,WUHU216HW,2013-01-13 14:54:00,
2013-01-13 06:58:00,29.7,27.2,29.85,East,90,0.0,0.0,90,0.00,,,0.00,WUHU216HW,2013-01-13 14:58:00,
2013-01-13 06:59:00,29.7,27.2,29.85,East,90,0.0,0.0,90,0.00,,,0.00,WUHU216HW,2013-01-13 14:59:00,
2013-01-13 07:03:00,29.7,27.2,29.85,East,90,0.0,0.0,90,0.00,,,0.00,WUHU216HW,2013-01-13 15:03:00,
2013-01-13 07:04:00,29.9,27.4,29.85,East,90,0.0,0.0,90,0.00,,,0.00,WUHU216HW,2013-01-13 15:04:00,
2013-01-13 07:08:00,29.7,27.2,29.85,East,90,0.0,0.0,90,0.00,,,0.00,WUHU216HW,2013-01-13 15:08:00,
2013-01-13 07:09:00,29.7,27.2,29.86,East,90,0.0,0.0,90,0.00,,,0.00,WUHU216HW,2013-01-13 15:09:00,
2013-01-13 07:13:00,29.7,27.2,29.86,East,90,0.0,0.0,90,0.00,,,0.00,WUHU216HW,2013-01-13 15:13:00,
2013-01-13 07:14:00,29.7,27.2,29.86,East,90,0.0,0.0,90,0.00,,,0.00,WUHU216HW,2013-01-13 15:14:00,
2013-01-13 07:18:00,29.7,27.2,29.86,East,90,0.0,0.0,90,0.00,,,0.00,WUHU216HW,2013-01-13 15:18:00,
2013-01-13 07:19:00,29.7,27.2,29.86,East,90,0.0,0.0,90,0.00,,,0.00,WUHU216HW,2013-01-13 15:19:00,
2013-01-13 07:23:00,29.9,27.4,29.86,East,90,0.0,0.0,90,0.00,,,0.00,WUHU216HW,2013-01-13 15:23:00,
2013-01-13 07:24:00,29.9,27.4,29.86,East,90,0.0,0.0,90,0.00,,,0.00,WUHU216HW,2013-01-13 15:24:00,
2013-01-13 07:28:00,29.9,27.4,29.86,East,90,0.0,0.0,90,0.00,,,0.00,WUHU216HW,2013-01-13 15:28:00,
2013-01-13 07:29:00,29.9,27.4,29.86,East,90,0.0,0.0,90,0.00,,,0.00,WUHU216HW,2013-01-13 15:29:00,
2013-01-13 07:34:00,29.9,27.4,29.86,East,90,0.0,0.0,90,0.00,,,0.00,WUHU216HW,2013-01-13 15:34:00,
2013-01-13 07:39:00,29.9,27.4,29.87,East,90,0.0,0.0,90,0.00,,,0.00,WUHU216HW,2013-01-13 15:39:00,
2013-01-13 07:40:00,29.9,27.4,29.87,East,90,0.0,0.0,90,0.00,,,0.00,WUHU216HW,2013-01-13 15:40:00,
2013-01-13 07:44:00,29.9,27.4,29.87,East,90,0.0,0.0,90,0.00,,,0.00,WUHU216HW,2013-01-13 15:44:00,
2013-01-13 07:45:00,29.9,27.4,29.87,East,90,0.0,0.0,90,0.00,,,0.00,WUHU216HW,2013-01-13 15:45:00,
2013-01-13 07:49:00,30.1,27.5,29.87,East,90,0.0,0.0,90,0.00,,,0.00,WUHU216HW,2013-01-13 15:49:00,
2013-01-13 07:50:00,30.1,27.5,29.87,East,90,0.0,0.0,90,0.00,,,0.00,WUHU216HW,2013-01-13 15:50:00,
2013-01-13 07:52:00,30.1,27.5,29.87,East,90,0.0,0.0,90,0.00,,,0.00,WUHU216HW,2013-01-13 15:52:00,
2013-01-13 07:54:00,30.1,27.5,29.87,East,90,0.0,0.0,90,0.00,,,0.00,WUHU216HW,2013-01-13 15:54:00,
2013-01-13 07:55:00,30.1,27.5,29.87,East,90,0.0,0.0,90,0.00,,,0.00,WUHU216HW,2013-01-13 15:55:00,
2013-01-13 07:59:00,30.1,27.5,29.87,East,90,0.0,0.0,90,0.00,,,0.00,WUHU216HW,2013-01-13 15:59:00,
2013-01-13 08:00:00,30.1,27.5,29.87,East,90,0.0,0.0,90,0.00,,,0.00,WUHU216HW,2013-01-13 16:00:00,
2013-01-13 08:04:00,30.1,27.5,29.87,East,90,0.0,0.0,90,0.00,,,0.00,WUHU216HW,2013-01-13 16:04:00,
2013-01-13 08:05:00,30.1,27.5,29.87,East,90,0.0,0.0,90,0.00,,,0.00,WUHU216HW,2013-01-13 16:05:00,
2013-01-13 08:09:00,30.2,27.7,29.87,East,90,0.0,0.0,90,0.00,,,0.00,WUHU216HW,2013-01-13 16:09:00,
2013-01-13 08:10:00,30.2,27.7,29.87,East,90,0.0,0.0,90,0.00,,,0.00,WUHU216HW,2013-01-13 16:10:00,
2013-01-13 08:15:00,30.2,27.7,29.87,East,90,0.0,0.0,90,0.00,,,0.00,WUHU216HW,2013-01-13 16:15:00,
2013-01-13 08:16:00,30.2,27.7,29.87,East,90,0.0,0.0,90,0.00,,,0.00,WUHU216HW,2013-01-13 16:16:00,
2013-01-13 08:20:00,30.2,27.7,29.87,East,90,0.0,0.0,90,0.00,,,0.00,WUHU216HW,2013-01-13 16:20:00,
2013-01-13 08:21:00,30.2,27.7,29.87,East,90,0.0,0.0,90,0.00,,,0.00,WUHU216HW,2013-01-13 16:21:00,
2013-01-13 08:25:00,30.2,27.7,29.87,East,90,0.0,0.0,90,0.00,,,0.00,WUHU216HW,2013-01-13 16:25:00,
2013-01-13 08:26:00,30.2,27.7,29.87,East,90,0.0,0.0,90,0.00,,,0.00,WUHU216HW,2013-01-13 16:26:00,
2013-01-13 08:30:00,30.2,27.7,29.87,East,90,0.0,0.0,90,0.00,,,0.00,WUHU216HW,2013-01-13 16:30:00,
2013-01-13 08:31:00,30.2,27.7,29.87,East,90,0.0,0.0,90,0.00,,,0.00,WUHU216HW,2013-01-13 16:31:00,
2013-01-13 08:35:00,30.4,27.9,29.87,East,90,0.0,0.0,90,0.00,,,0.00,WUHU216HW,2013-01-13 16:35:00,
2013-01-13 08:36:00,30.4,27.9,29.87,East,90,0.0,0.0,90,0.00,,,0.00,WUHU216HW,2013-01-13 16:36:00,
2013-01-13 08:40:00,30.6,28.1,29.87,East,90,0.0,0.0,90,0.00,,,0.00,WUHU216HW,2013-01-13 16:40:00,
2013-01-13 08:41:00,30.6,28.1,29.87,East,90,0.0,0.0,90,0.00,,,0.00,WUHU216HW,2013-01-13 16:41:00,
2013-01-13 08:45:00,30.6,28.1,29.87,East,90,0.0,0.0,90,0.00,,,0.00,WUHU216HW,2013-01-13 16:45:00,
2013-01-13 08:46:00,30.6,28.1,29.87,East,90,0.0,0.0,90,0.00,,,0.00,WUHU216HW,2013-01-13 16:46:00,
2013-01-13 08:50:00,30.6,28.1,29.87,East,90,0.0,0.0,90,0.00,,,0.00,WUHU216HW,2013-01-13 16:50:00,
2013-01-13 08:51:00,30.6,28.1,29.87,East,90,0.0,0.0,90,0.00,,,0.00,WUHU216HW,2013-01-13 16:51:00,
2013-01-13 08:52:00,30.6,28.1,29.87,East,90,0.0,0.0,90,0.00,,,0.00,WUHU216HW,2013-01-13 16:52:00,
2013-01-13 08:55:00,30.6,28.1,29.87,East,90,0.0,0.0,90,0.00,,,0.00,WUHU216HW,2013-01-13 16:55:00,
2013-01-13 08:56:00,30.6,28.1,29.87,East,90,0.0,0.0,90,0.00,,,0.00,WUHU216HW,2013-01-13 16:56:00,
2013-01-13 08:57:00,30.6,28.1,29.87,East,90,0.0,0.0,90,0.00,,,0.00,WUHU216HW,2013-01-13 16:57:00,
2013-01-13 09:00:00,30.6,28.1,29.87,East,90,0.0,0.0,90,0.00,,,0.00,WUHU216HW,2013-01-13 17:00:00,
2013-01-13 09:01:00,30.6,28.1,29.87,East,90,0.0,0.0,90,0.00,,,0.00,WUHU216HW,2013-01-13 17:01:00,
2013-01-13 09:02:00,30.6,28.1,29.87,East,90,0.0,0.0,90,0.00,,,0.00,WUHU216HW,2013-01-13 17:02:00,
2013-01-13 09:05:00,30.6,28.1,29.87,East,90,0.0,0.0,90,0.00,,,0.00,WUHU216HW,2013-01-13 17:05:00,
2013-01-13 09:06:00,30.6,28.1,29.86,East,90,0.0,0.0,90,0.00,,,0.00,WUHU216HW,2013-01-13 17:06:00,
2013-01-13 09:07:00,30.6,28.1,29.86,East,90,0.0,0.0,90,0.00,,,0.00,WUHU216HW,2013-01-13 17:07:00,
2013-01-13 09:11:00,30.6,28.1,29.86,East,90,0.0,0.0,90,0.00,,,0.00,WUHU216HW,2013-01-13 17:11:00,
2013-01-13 09:12:00,30.6,28.1,29.87,East,90,0.0,0.0,90,0.00,,,0.00,WUHU216HW,2013-01-13 17:12:00,
2013-01-13 09:16:00,30.6,27.8,29.87,East,90,0.0,0.0,89,0.00,,,0.00,WUHU216HW,2013-01-13 17:16:00,
2013-01-13 09:17:00,30.8,28.0,29.87,East,90,0.0,0.0,89,0.00,,,0.00,WUHU216HW,2013-01-13 17:17:00,
2013-01-13 09:21:00,30.8,28.3,29.87,East,90,0.0,0.0,90,0.00,,,0.00,WUHU216HW,2013-01-13 17:21:00,
2013-01-13 09:22:00,30.6,28.1,29.87,East,90,0.0,0.0,90,0.00,,,0.00,WUHU216HW,2013-01-13 17:22:00,
2013-01-13 09:23:00,30.8,28.3,29.87,East,90,0.0,0.0,90,0.00,,,0.00,WUHU216HW,2013-01-13 17:23:00,
2013-01-13 09:26:00,30.8,28.0,29.87,East,90,0.0,0.0,89,0.00,,,0.00,WUHU216HW,2013-01-13 17:26:00,
2013-01-13 09:27:00,30.8,28.3,29.87,East,90,0.0,0.0,90,0.00,,,0.00,WUHU216HW,2013-01-13 17:27:00,
2013-01-13 09:28:00,30.8,28.0,29.87,East,90,0.0,0.0,89,0.00,,,0.00,WUHU216HW,2013-01-13 17:28:00,
2013-01-13 09:31:00,31.0,28.2,29.87,East,90,0.0,0.0,89,0.00,,,0.00,WUHU216HW,2013-01-13 17:31:00,
2013-01-13 09:32:00,31.0,28.2,29.87,East,90,0.0,0.0,89,0.00,,,0.00,WUHU216HW,2013-01-13 17:32:00,
2013-01-13 09:33:00,31.0,28.2,29.87,East,90,0.0,0.0,89,0.00,,,0.00,WUHU216HW,2013-01-13 17:33:00,
2013-01-13 09:36:00,31.0,28.2,29.87,East,90,0.0,0.0,89,0.00,,,0.00,WUHU216HW,2013-01-13 17:36:00,
2013-01-13 09:37:00,31.0,28.2,29.87,East,90,0.0,0.0,89,0.00,,,0.00,WUHU216HW,2013-01-13 17:37:00,
2013-01-13 09:38:00,31.0,28.2,29.87,East,90,0.0,0.0,89,0.00,,,0.00,WUHU216HW,2013-01-13 17:38:00,
2013-01-13 09:41:00,31.1,28.4,29.87,East,90,0.0,0.0,89,0.00,,,0.00,WUHU216HW,2013-01-13 17:41:00,
2013-01-13 09:42:00,31.1,28.4,29.87,East,90,0.2,0.2,89,0.00,,,0.00,WUHU216HW,2013-01-13 17:42:00,
2013-01-13 09:43:00,31.1,28.4,29.87,East,90,0.2,0.2,89,0.00,,,0.00,WUHU216HW,2013-01-13 17:43:00,
2013-01-13 09:46:00,31.3,28.5,29.88,East,90,0.0,0.2,89,0.00,,,0.00,WUHU216HW,2013-01-13 17:46:00,
2013-01-13 09:47:00,31.3,28.5,29.88,East,90,0.0,0.2,89,0.00,,,0.00,WUHU216HW,2013-01-13 17:47:00,
2013-01-13 09:48:00,31.3,28.5,29.88,East,90,0.0,0.2,89,0.00,,,0.00,WUHU216HW,2013-01-13 17:48:00,
2013-01-13 09:51:00,31.5,28.7,29.88,East,90,0.0,0.2,89,0.00,,,0.00,WUHU216HW,2013-01-13 17:51:00,
2013-01-13 09:53:00,31.5,28.7,29.89,East,90,0.0,0.0,89,0.00,,,0.00,WUHU216HW,2013-01-13 17:53:00,
2013-01-13 09:56:00,31.7,29.2,29.89,East,90,0.0,0.0,90,0.00,,,0.00,WUHU216HW,2013-01-13 17:56:00,
2013-01-13 09:58:00,31.7,29.2,29.89,East,90,0.0,0.0,90,0.00,,,0.00,WUHU216HW,2013-01-13 17:58:00,
2013-01-13 10:01:00,31.9,29.1,29.89,East,90,0.0,0.0,89,0.00,,,0.00,WUHU216HW,2013-01-13 18:01:00,
2013-01-13 10:03:00,31.9,29.1,29.89,East,90,0.0,0.0,89,0.00,,,0.00,WUHU216HW,2013-01-13 18:03:00,
2013-01-13 10:06:00,32.0,29.3,29.89,East,90,0.0,0.0,89,0.00,,,0.00,WUHU216HW,2013-01-13 18:06:00,
2013-01-13 10:08:00,32.0,29.3,29.88,East,90,0.0,0.0,89,0.00,,,0.00,WUHU216HW,2013-01-13 18:08:00,
2013-01-13 10:09:00,32.0,29.3,29.89,East,90,0.0,0.0,89,0.00,,,0.00,WUHU216HW,2013-01-13 18:09:00,
2013-01-13 10:11:00,32.0,29.3,29.89,East,90,0.0,0.0,89,0.00,,,0.00,WUHU216HW,2013-01-13 18:11:00,
2013-01-13 10:13:00,32.0,29.3,29.88,East,90,0.2,0.2,89,0.00,,,0.00,WUHU216HW,2013-01-13 18:13:00,
2013-01-13 10:14:00,32.0,29.3,29.89,East,90,0.2,0.2,89,0.00,,,0.00,WUHU216HW,2013-01-13 18:14:00,
2013-01-13 10:17:00,32.2,29.4,29.89,East,90,0.0,0.2,89,0.00,,,0.00,WUHU216HW,2013-01-13 18:17:00,
2013-01-13 10:18:00,32.2,29.4,29.89,East,90,0.0,0.2,89,0.00,,,0.00,WUHU216HW,2013-01-13 18:18:00,
2013-01-13 10:19:00,32.2,29.4,29.89,East,90,0.0,0.2,89,0.00,,,0.00,WUHU216HW,2013-01-13 18:19:00,
2013-01-13 10:22:00,32.2,29.1,29.89,East,90,0.0,0.2,88,0.00,,,0.00,WUHU216HW,2013-01-13 18:22:00,
2013-01-13 10:23:00,32.4,29.3,29.89,East,90,0.0,0.2,88,0.00,,,0.00,WUHU216HW,2013-01-13 18:23:00,
2013-01-13 10:24:00,32.4,29.3,29.89,East,90,0.0,0.0,88,0.00,,,0.00,WUHU216HW,2013-01-13 18:24:00,
2013-01-13 10:27:00,32.4,29.3,29.89,East,90,0.0,0.0,88,0.00,,,0.00,WUHU216HW,2013-01-13 18:27:00,
2013-01-13 10:28:00,32.4,29.3,29.89,East,90,0.0,0.0,88,0.00,,,0.00,WUHU216HW,2013-01-13 18:28:00,
2013-01-13 10:29:00,32.6,29.4,29.89,East,90,0.0,0.0,88,0.00,,,0.00,WUHU216HW,2013-01-13 18:29:00,
2013-01-13 10:32:00,32.8,29.6,29.89,East,90,0.0,0.0,88,0.00,,,0.00,WUHU216HW,2013-01-13 18:32:00,
2013-01-13 10:33:00,32.8,29.6,29.89,East,90,0.0,0.0,88,0.00,,,0.00,WUHU216HW,2013-01-13 18:33:00,
2013-01-13 10:34:00,32.8,29.6,29.89,East,90,0.0,0.0,88,0.00,,,0.00,WUHU216HW,2013-01-13 18:34:00,
2013-01-13 10:37:00,32.8,29.6,29.89,East,90,0.0,0.0,88,0.00,,,0.00,WUHU216HW,2013-01-13 18:37:00,
2013-01-13 10:38:00,32.8,29.6,29.89,East,90,0.0,0.0,88,0.00,,,0.00,WUHU216HW,2013-01-13 18:38:00,
2013-01-13 10:39:00,32.8,29.6,29.89,East,90,0.0,0.0,88,0.00,,,0.00,WUHU216HW,2013-01-13 18:39:00,
2013-01-13 10:43:00,32.9,29.4,29.89,East,90,0.0,1.1,87,0.00,,,0.00,WUHU216HW,2013-01-13 18:43:00,
2013-01-13 10:44:00,32.9,29.4,29.89,East,90,0.4,1.1,87,0.00,,,0.00,WUHU216HW,2013-01-13 18:44:00,
2013-01-13 10:48:00,32.9,29.4,29.89,East,90,0.0,1.1,87,0.00,,,0.00,WUHU216HW,2013-01-13 18:48:00,
2013-01-13 10:49:00,32.9,29.4,29.89,East,90,0.2,1.1,87,0.00,,,0.00,WUHU216HW,2013-01-13 18:49:00,
2013-01-13 10:50:00,32.9,29.4,29.89,East,90,0.2,1.1,87,0.00,,,0.00,WUHU216HW,2013-01-13 18:50:00,
2013-01-13 10:53:00,32.9,29.2,29.89,WSW,248,0.0,0.4,86,0.00,,,0.00,WUHU216HW,2013-01-13 18:53:00,
2013-01-13 10:54:00,32.9,29.4,29.88,SSW,203,0.0,0.2,87,0.00,,,0.00,WUHU216HW,2013-01-13 18:54:00,
2013-01-13 10:55:00,32.9,29.4,29.88,SSW,203,0.0,0.2,87,0.00,,,0.00,WUHU216HW,2013-01-13 18:55:00,
2013-01-13 10:58:00,32.9,29.2,29.88,SW,225,0.0,0.4,86,0.00,,,0.00,WUHU216HW,2013-01-13 18:58:00,
2013-01-13 11:00:00,32.9,29.4,29.88,SW,225,0.0,0.4,87,0.00,,,0.00,WUHU216HW,2013-01-13 19:00:00,
2013-01-13 11:03:00,33.1,29.6,29.88,West,270,0.4,0.4,87,0.00,,,0.00,WUHU216HW,2013-01-13 19:03:00,
2013-01-13 11:05:00,33.1,29.3,29.88,SW,225,0.4,0.4,86,0.00,,,0.00,WUHU216HW,2013-01-13 19:05:00,
2013-01-13 11:06:00,33.1,29.3,29.88,SW,225,0.4,0.4,86,0.00,,,0.00,WUHU216HW,2013-01-13 19:06:00,
2013-01-13 11:08:00,33.1,29.6,29.88,SW,225,0.2,0.4,87,0.00,,,0.00,WUHU216HW,2013-01-13 19:08:00,
2013-01-13 11:10:00,33.1,29.3,29.88,WSW,248,0.9,0.9,86,0.00,,,0.00,WUHU216HW,2013-01-13 19:10:00,
2013-01-13 11:11:00,33.1,29.3,29.88,WSW,248,0.9,0.9,86,0.00,,,0.00,WUHU216HW,2013-01-13 19:11:00,
2013-01-13 11:13:00,33.1,29.6,29.88,South,180,0.0,0.9,87,0.00,,,0.00,WUHU216HW,2013-01-13 19:13:00,
2013-01-13 11:14:00,33.1,29.6,29.88,South,180,0.0,0.9,87,0.00,,,0.00,WUHU216HW,2013-01-13 19:14:00,
2013-01-13 11:15:00,33.3,29.8,29.88,SSE,158,0.0,0.9,87,0.00,,,0.00,WUHU216HW,2013-01-13 19:15:00,
2013-01-13 11:16:00,33.3,29.8,29.88,SSE,158,0.0,0.9,87,0.00,,,0.00,WUHU216HW,2013-01-13 19:16:00,
2013-01-13 11:18:00,33.5,30.0,29.88,SSW,203,0.2,0.9,87,0.00,,,0.00,WUHU216HW,2013-01-13 19:18:00,
2013-01-13 11:19:00,33.5,30.0,29.88,SSW,203,0.2,0.9,87,0.00,,,0.00,WUHU216HW,2013-01-13 19:19:00,
2013-01-13 11:20:00,33.7,29.8,29.87,SE,135,0.2,0.9,86,0.00,,,0.00,WUHU216HW,2013-01-13 19:20:00,
2013-01-13 11:21:00,33.8,30.0,29.87,SSW,203,0.2,0.9,86,0.00,,,0.00,WUHU216HW,2013-01-13 19:21:00,
2013-01-13 11:23:00,33.8,30.0,29.87,WSW,248,0.4,0.9,86,0.00,,,0.00,WUHU216HW,2013-01-13 19:23:00,
2013-01-13 11:24:00,33.8,30.0,29.87,WSW,248,0.4,0.9,86,0.00,,,0.00,WUHU216HW,2013-01-13 19:24:00,
2013-01-13 11:25:00,33.8,30.0,29.86,SW,225,0.0,0.9,86,0.00,,,0.00,WUHU216HW,2013-01-13 19:25:00,
2013-01-13 11:26:00,33.8,30.0,29.86,WSW,248,0.0,0.9,86,0.00,,,0.00,WUHU216HW,2013-01-13 19:26:00,
2013-01-13 11:29:00,33.7,29.8,29.86,ENE,68,0.0,0.9,86,0.00,,,0.00,WUHU216HW,2013-01-13 19:29:00,
2013-01-13 11:30:00,33.7,29.8,29.86,ENE,68,0.0,0.4,86,0.00,,,0.00,WUHU216HW,2013-01-13 19:30:00,
2013-01-13 11:31:00,33.7,29.8,29.86,ENE,68,0.0,0.4,86,0.00,,,0.00,WUHU216HW,2013-01-13 19:31:00,
2013-01-13 11:34:00,33.7,29.8,29.86,SW,225,0.0,0.4,86,0.00,,,0.00,WUHU216HW,2013-01-13 19:34:00,
2013-01-13 11:35:00,33.7,29.8,29.86,NW,315,0.0,0.2,86,0.00,,,0.00,WUHU216HW,2013-01-13 19:35:00,
2013-01-13 11:36:00,33.7,29.8,29.86,NW,315,0.0,0.2,86,0.00,,,0.00,WUHU216HW,2013-01-13 19:36:00,
2013-01-13 11:39:00,33.7,29.8,29.86,NNW,338,0.0,0.9,86,0.00,,,0.00,WUHU216HW,2013-01-13 19:39:00,
2013-01-13 11:41:00,33.8,29.7,29.86,West,270,0.4,0.9,85,0.00,,,0.00,WUHU216HW,2013-01-13 19:41:00,
2013-01-13 11:44:00,33.8,30.0,29.86,NW,315,1.1,1.1,86,0.00,,,0.00,WUHU216HW,2013-01-13 19:44:00,
2013-01-13 11:46:00,33.8,30.0,29.86,NW,315,0.2,1.1,86,0.00,,,0.00,WUHU216HW,2013-01-13 19:46:00,
2013-01-13 11:49:00,34.0,29.9,29.86,NNW,338,0.2,1.1,85,0.00,,,0.00,WUHU216HW,2013-01-13 19:49:00,
2013-01-13 11:51:00,34.0,29.9,29.86,NW,315,0.0,1.1,85,0.00,,,0.00,WUHU216HW,2013-01-13 19:51:00,
2013-01-13 11:54:00,33.8,28.8,29.86,West,270,0.2,0.9,82,0.00,,,0.00,WUHU216HW,2013-01-13 19:54:00,
2013-01-13 11:55:00,33.8,29.2,29.86,WSW,248,0.0,0.9,83,0.00,,,0.00,WUHU216HW,2013-01-13 19:55:00,
2013-01-13 11:56:00,33.8,29.2,29.86,WSW,248,0.0,0.9,83,0.00,,,0.00,WUHU216HW,2013-01-13 19:56:00,
2013-01-13 11:59:00,33.8,29.4,29.86,SSW,203,0.0,0.9,84,0.00,,,0.00,WUHU216HW,2013-01-13 19:59:00,
2013-01-13 12:00:00,33.8,29.4,29.86,SSW,203,0.0,0.9,84,0.00,,,0.00,WUHU216HW,2013-01-13 20:00:00,
2013-01-13 12:01:00,34.0,29.9,29.86,SSW,203,0.2,0.9,85,0.00,,,0.00,WUHU216HW,2013-01-13 20:01:00,
2013-01-13 12:05:00,34.0,29.4,29.86,WSW,248,0.4,0.9,83,0.00,,,0.00,WUHU216HW,2013-01-13 20:05:00,
2013-01-13 12:06:00,34.0,29.4,29.86,SSE,158,0.0,0.9,83,0.00,,,0.00,WUHU216HW,2013-01-13 20:06:00,
2013-01-13 12:07:00,34.0,29.4,29.86,SSE,158,0.0,0.9,83,0.00,,,0.00,WUHU216HW,2013-01-13 20:07:00,
2013-01-13 12:10:00,34.2,29.8,29.86,WSW,248,0.0,0.9,84,0.00,,,0.00,WUHU216HW,2013-01-13 20:10:00,
2013-01-13 12:12:00,34.2,29.8,29.86,WSW,248,0.0,0.9,84,0.00,,,0.00,WUHU216HW,2013-01-13 20:12:00,
2013-01-13 12:15:00,34.4,30.0,29.87,ESE,113,0.0,0.7,84,0.00,,,0.00,WUHU216HW,2013-01-13 20:15:00,
2013-01-13 12:17:00,34.6,29.5,29.87,North,0,0.0,0.7,82,0.00,,,0.00,WUHU216HW,2013-01-13 20:17:00,
2013-01-13 12:20:00,34.6,29.9,29.87,SSE,158,0.7,0.7,83,0.00,,,0.00,WUHU216HW,2013-01-13 20:20:00,
2013-01-13 12:22:00,34.7,30.1,29.87,South,180,1.1,1.1,83,0.00,,,0.00,WUHU216HW,2013-01-13 20:22:00,
2013-01-13 12:25:00,34.6,29.9,29.86,South,180,0.0,1.1,83,0.00,,,0.00,WUHU216HW,2013-01-13 20:25:00,
2013-01-13 12:27:00,34.7,30.1,29.86,SE,135,0.2,1.1,83,0.00,,,0.00,WUHU216HW,2013-01-13 20:27:00,
2013-01-13 12:30:00,34.4,27.8,29.86,SW,225,0.9,1.1,77,0.00,,,0.00,WUHU216HW,2013-01-13 20:30:00,
2013-01-13 12:31:00,34.4,28.2,29.86,WNW,293,0.2,1.1,78,0.00,,,0.00,WUHU216HW,2013-01-13 20:31:00,
2013-01-13 12:32:00,34.4,28.4,29.86,NNW,338,0.0,0.9,79,0.00,,,0.00,WUHU216HW,2013-01-13 20:32:00,
2013-01-13 12:35:00,34.4,28.8,29.86,NW,315,0.0,0.9,80,0.00,,,0.00,WUHU216HW,2013-01-13 20:35:00,
2013-01-13 12:36:00,34.4,28.8,29.86,NNE,23,0.0,0.9,80,0.00,,,0.00,WUHU216HW,2013-01-13 20:36:00,
2013-01-13 12:37:00,34.4,28.8,29.86,SW,225,0.2,0.9,80,0.00,,,0.00,WUHU216HW,2013-01-13 20:37:00,
2013-01-13 12:38:00,34.6,29.0,29.86,WSW,248,0.4,0.9,80,0.00,,,0.00,WUHU216HW,2013-01-13 20:38:00,
2013-01-13 12:40:00,34.7,29.4,29.86,NNW,338,0.0,0.4,81,0.00,,,0.00,WUHU216HW,2013-01-13 20:40:00,
2013-01-13 12:41:00,34.7,29.4,29.86,NNW,338,0.0,0.4,81,0.00,,,0.00,WUHU216HW,2013-01-13 20:41:00,
2013-01-13 12:42:00,34.7,29.4,29.86,SW,225,0.4,0.4,81,0.01,,,0.00,WUHU216HW,2013-01-13 20:42:00,
2013-01-13 12:43:00,34.7,29.2,29.86,West,270,0.7,0.7,80,0.01,,,0.01,WUHU216HW,2013-01-13 20:43:00,
2013-01-13 12:46:00,34.7,28.8,29.86,SSW,203,0.2,0.7,79,0.01,,,0.01,WUHU216HW,2013-01-13 20:46:00,
2013-01-13 12:47:00,34.7,28.8,29.86,West,270,0.0,0.7,79,0.01,,,0.01,WUHU216HW,2013-01-13 20:47:00,
2013-01-13 12:48:00,34.7,28.8,29.86,WSW,248,0.2,0.7,79,0.01,,,0.01,WUHU216HW,2013-01-13 20:48:00,
2013-01-13 12:51:00,34.7,28.8,29.86,SSW,203,0.7,0.7,79,0.01,,,0.01,WUHU216HW,2013-01-13 20:51:00,
2013-01-13 12:52:00,34.7,28.8,29.86,NNW,338,0.2,0.7,79,0.01,,,0.01,WUHU216HW,2013-01-13 20:52:00,
2013-01-13 12:53:00,34.9,28.7,29.86,WNW,293,0.2,0.7,78,0.01,,,0.01,WUHU216HW,2013-01-13 20:53:00,
2013-01-13 12:56:00,34.7,28.5,29.86,NW,315,0.0,0.7,78,0.01,,,0.01,WUHU216HW,2013-01-13 20:56:00,
2013-01-13 12:57:00,34.9,28.7,29.86,WNW,293,0.0,0.7,78,0.01,,,0.01,WUHU216HW,2013-01-13 20:57:00,
2013-01-13 12:58:00,34.9,29.0,29.86,West,270,0.0,0.7,79,0.01,,,0.01,WUHU216HW,2013-01-13 20:58:00,
2013-01-13 13:01:00,34.9,29.3,29.86,NE,45,0.0,0.7,80,0.01,,,0.01,WUHU216HW,2013-01-13 21:01:00,
2013-01-13 13:02:00,35.1,29.5,29.86,NE,45,0.0,0.7,80,0.01,,,0.01,WUHU216HW,2013-01-13 21:02:00,
2013-01-13 13:03:00,35.3,28.7,29.86,SSW,203,0.4,0.7,77,0.01,,,0.01,WUHU216HW,2013-01-13 21:03:00,
2013-01-13 13:06:00,35.1,28.5,29.85,SE,135,1.1,1.1,77,0.01,,,0.01,WUHU216HW,2013-01-13 21:06:00,
2013-01-13 13:07:00,35.1,28.5,29.85,South,180,0.2,1.1,77,0.01,,,0.01,WUHU216HW,2013-01-13 21:07:00,
2013-01-13 13:08:00,35.1,28.9,29.85,SSW,203,0.0,1.1,78,0.01,,,0.01,WUHU216HW,2013-01-13 21:08:00,
2013-01-13 13:11:00,35.1,29.2,29.85,South,180,0.4,1.1,79,0.01,,,0.01,WUHU216HW,2013-01-13 21:11:00,
2013-01-13 13:12:00,35.1,29.2,29.85,SW,225,0.4,1.1,79,0.01,,,0.01,WUHU216HW,2013-01-13 21:12:00,
2013-01-13 13:13:00,35.1,29.2,29.85,SW,225,0.4,1.1,79,0.01,,,0.01,WUHU216HW,2013-01-13 21:13:00,
2013-01-13 13:16:00,35.1,29.5,29.86,SSW,203,0.0,0.7,80,0.01,,,0.01,WUHU216HW,2013-01-13 21:16:00,
2013-01-13 13:17:00,35.1,29.2,29.86,SW,225,0.2,0.7,79,0.01,,,0.01,WUHU216HW,2013-01-13 21:17:00,
2013-01-13 13:18:00,35.1,29.2,29.86,SW,225,0.2,0.7,79,0.01,,,0.01,WUHU216HW,2013-01-13 21:18:00,
2013-01-13 13:21:00,35.1,28.9,29.86,WNW,293,0.0,0.4,78,0.01,,,0.01,WUHU216HW,2013-01-13 21:21:00,
2013-01-13 13:23:00,35.1,28.5,29.86,WSW,248,0.9,0.9,77,0.01,,,0.01,WUHU216HW,2013-01-13 21:23:00,
2013-01-13 13:26:00,35.1,28.9,29.86,West,270,0.0,0.9,78,0.01,,,0.01,WUHU216HW,2013-01-13 21:26:00,
2013-01-13 13:28:00,35.1,28.9,29.86,West,270,0.4,0.9,78,0.01,,,0.01,WUHU216HW,2013-01-13 21:28:00,
2013-01-13 13:29:00,35.1,29.2,29.86,West,270,0.0,0.9,79,0.01,,,0.01,WUHU216HW,2013-01-13 21:29:00,
2013-01-13 13:31:00,35.1,28.5,29.86,SSW,203,0.0,0.9,77,0.01,,,0.01,WUHU216HW,2013-01-13 21:31:00,
2013-01-13 13:33:00,35.1,28.9,29.86,NW,315,0.0,0.4,78,0.01,,,0.01,WUHU216HW,2013-01-13 21:33:00,
2013-01-13 13:34:00,35.3,29.1,29.86,NW,315,0.0,0.4,78,0.01,,,0.01,WUHU216HW,2013-01-13 21:34:00,
2013-01-13 13:36:00,35.3,29.3,29.86,West,270,0.0,0.4,79,0.01,,,0.01,WUHU216HW,2013-01-13 21:36:00,
2013-01-13 13:38:00,35.3,29.3,29.85,SSW,203,0.0,0.4,79,0.01,,,0.01,WUHU216HW,2013-01-13 21:38:00,
2013-01-13 13:39:00,35.3,29.7,29.86,East,90,0.0,0.4,80,0.01,,,0.01,WUHU216HW,2013-01-13 21:39:00,
2013-01-13 13:42:00,35.3,29.1,29.85,SW,225,0.2,0.4,78,0.00,,,0.01,WUHU216HW,2013-01-13 21:42:00,
2013-01-13 13:43:00,35.3,29.1,29.85,SW,225,0.2,0.4,78,0.00,,,0.01,WUHU216HW,2013-01-13 21:43:00,
2013-01-13 13:44:00,35.3,29.3,29.85,SSW,203,0.2,0.4,79,0.00,,,0.01,WUHU216HW,2013-01-13 21:44:00,
2013-01-13 13:45:00,35.3,29.1,29.86,SW,225,0.4,0.4,78,0.00,,,0.01,WUHU216HW,2013-01-13 21:45:00,
2013-01-13 13:47:00,35.3,29.3,29.86,SW,225,0.0,0.4,79,0.00,,,0.01,WUHU216HW,2013-01-13 21:47:00,
2013-01-13 13:48:00,35.3,29.3,29.86,SW,225,0.0,0.4,79,0.00,,,0.01,WUHU216HW,2013-01-13 21:48:00,
2013-01-13 13:49:00,35.3,29.3,29.86,WSW,248,0.0,0.4,79,0.00,,,0.01,WUHU216HW,2013-01-13 21:49:00,
2013-01-13 13:50:00,35.5,29.5,29.86,NW,315,0.0,0.4,79,0.00,,,0.01,WUHU216HW,2013-01-13 21:50:00,
2013-01-13 13:52:00,35.5,29.3,29.86,South,180,0.0,0.4,78,0.00,,,0.01,WUHU216HW,2013-01-13 21:52:00,
2013-01-13 13:53:00,35.5,29.5,29.86,WNW,293,0.0,0.4,79,0.00,,,0.01,WUHU216HW,2013-01-13 21:53:00,
2013-01-13 13:54:00,35.5,29.5,29.86,WNW,293,0.0,0.4,79,0.00,,,0.01,WUHU216HW,2013-01-13 21:54:00,
2013-01-13 13:55:00,35.5,29.5,29.86,WNW,293,0.0,0.4,79,0.00,,,0.01,WUHU216HW,2013-01-13 21:55:00,
2013-01-13 13:57:00,35.6,29.7,29.86,East,90,0.0,0.2,79,0.00,,,0.01,WUHU216HW,2013-01-13 21:57:00,
2013-01-13 13:58:00,35.6,29.7,29.86,NW,315,0.0,0.2,79,0.00,,,0.01,WUHU216HW,2013-01-13 21:58:00,
2013-01-13 13:59:00,35.6,29.7,29.86,NW,315,0.0,0.2,79,0.00,,,0.01,WUHU216HW,2013-01-13 21:59:00,
2013-01-13 14:00:00,35.8,29.0,29.86,NW,315,0.4,0.4,76,0.00,,,0.01,WUHU216HW,2013-01-13 22:00:00,
2013-01-13 14:03:00,35.6,28.8,29.86,SW,225,0.4,1.1,76,0.00,,,0.01,WUHU216HW,2013-01-13 22:03:00,
2013-01-13 14:04:00,35.6,28.8,29.86,WSW,248,0.4,1.1,76,0.00,,,0.01,WUHU216HW,2013-01-13 22:04:00,
2013-01-13 14:05:00,35.6,29.1,29.86,WSW,248,0.0,1.1,77,0.00,,,0.01,WUHU216HW,2013-01-13 22:05:00,
2013-01-13 14:08:00,35.6,29.1,29.86,WSW,248,0.0,1.1,77,0.00,,,0.01,WUHU216HW,2013-01-13 22:08:00,
2013-01-13 14:09:00,35.6,29.1,29.86,West,270,0.2,1.1,77,0.00,,,0.01,WUHU216HW,2013-01-13 22:09:00,
2013-01-13 14:10:00,35.5,28.9,29.86,SSE,158,0.2,1.1,77,0.00,,,0.01,WUHU216HW,2013-01-13 22:10:00,
2013-01-13 14:13:00,35.6,28.8,29.87,NW,315,0.0,0.7,76,0.00,,,0.01,WUHU216HW,2013-01-13 22:13:00,
2013-01-13 14:14:00,35.6,28.4,29.86,WNW,293,0.2,0.7,75,0.00,,,0.01,WUHU216HW,2013-01-13 22:14:00,
2013-01-13 14:15:00,35.6,28.4,29.86,WSW,248,0.0,0.7,75,0.00,,,0.01,WUHU216HW,2013-01-13 22:15:00,
2013-01-13 14:18:00,35.5,28.6,29.86,NNW,338,0.2,0.7,76,0.00,,,0.01,WUHU216HW,2013-01-13 22:18:00,
2013-01-13 14:19:00,35.5,28.6,29.86,South,180,0.7,0.7,76,0.00,,,0.01,WUHU216HW,2013-01-13 22:19:00,
2013-01-13 14:20:00,35.5,28.6,29.86,South,180,0.7,0.7,76,0.00,,,0.01,WUHU216HW,2013-01-13 22:20:00,
2013-01-13 14:23:00,35.3,28.5,29.87,NW,315,0.4,0.7,76,0.00,,,0.01,WUHU216HW,2013-01-13 22:23:00,
2013-01-13 14:24:00,35.3,28.7,29.87,SW,225,0.0,0.7,77,0.00,,,0.01,WUHU216HW,2013-01-13 22:24:00,
2013-01-13 14:25:00,35.3,28.7,29.87,SW,225,0.0,0.7,77,0.00,,,0.01,WUHU216HW,2013-01-13 22:25:00,
2013-01-13 14:28:00,35.3,28.7,29.87,West,270,0.0,0.7,77,0.00,,,0.01,WUHU216HW,2013-01-13 22:28:00,
2013-01-13 14:29:00,35.3,28.7,29.86,West,270,0.0,0.4,77,0.00,,,0.01,WUHU216HW,2013-01-13 22:29:00,
2013-01-13 14:30:00,35.3,28.7,29.86,West,270,0.0,0.4,77,0.00,,,0.01,WUHU216HW,2013-01-13 22:30:00,
2013-01-13 14:33:00,35.3,28.7,29.86,WSW,248,0.0,0.2,77,0.00,,,0.01,WUHU216HW,2013-01-13 22:33:00,
2013-01-13 14:34:00,35.3,29.1,29.86,West,270,0.0,0.2,78,0.00,,,0.01,WUHU216HW,2013-01-13 22:34:00,
2013-01-13 14:35:00,35.3,29.1,29.86,WSW,248,0.0,0.0,78,0.00,,,0.01,WUHU216HW,2013-01-13 22:35:00,
2013-01-13 14:38:00,35.3,29.1,29.86,SSW,203,0.2,0.2,78,0.00,,,0.01,WUHU216HW,2013-01-13 22:38:00,
2013-01-13 14:39:00,35.3,29.1,29.86,SSW,203,0.0,0.2,78,0.00,,,0.01,WUHU216HW,2013-01-13 22:39:00,
2013-01-13 14:40:00,35.3,29.1,29.86,SSW,203,0.0,0.2,78,0.00,,,0.01,WUHU216HW,2013-01-13 22:40:00,
2013-01-13 14:44:00,35.3,29.1,29.86,WNW,293,0.0,0.2,78,0.00,,,0.01,WUHU216HW,2013-01-13 22:44:00,
2013-01-13 14:45:00,35.3,29.1,29.86,WNW,293,0.0,0.2,78,0.00,,,0.01,WUHU216HW,2013-01-13 22:45:00,
2013-01-13 14:46:00,35.3,29.1,29.86,WNW,293,0.0,0.2,78,0.00,,,0.01,WUHU216HW,2013-01-13 22:46:00,
2013-01-13 14:49:00,35.3,28.5,29.86,WSW,248,0.0,0.4,76,0.00,,,0.01,WUHU216HW,2013-01-13 22:49:00,
2013-01-13 14:50:00,35.3,28.5,29.86,SW,225,0.0,0.4,76,0.00,,,0.01,WUHU216HW,2013-01-13 22:50:00,
2013-01-13 14:51:00,35.3,28.7,29.86,WSW,248,0.0,0.4,77,0.00,,,0.01,WUHU216HW,2013-01-13 22:51:00,
2013-01-13 14:54:00,35.3,28.7,29.86,SW,225,0.0,0.4,77,0.00,,,0.01,WUHU216HW,2013-01-13 22:54:00,
2013-01-13 14:55:00,35.1,28.5,29.86,WNW,293,0.2,0.4,77,0.00,,,0.01,WUHU216HW,2013-01-13 22:55:00,
2013-01-13 14:56:00,35.1,28.3,29.86,WNW,293,0.0,0.4,76,0.00,,,0.01,WUHU216HW,2013-01-13 22:56:00,
2013-01-13 14:59:00,34.9,28.4,29.86,WNW,293,0.0,0.4,77,0.00,,,0.01,WUHU216HW,2013-01-13 22:59:00,
2013-01-13 15:00:00,34.9,28.4,29.86,WNW,293,0.0,0.4,77,0.00,,,0.01,WUHU216HW,2013-01-13 23:00:00,
2013-01-13 15:01:00,34.9,28.4,29.86,WNW,293,0.0,0.4,77,0.00,,,0.01,WUHU216HW,2013-01-13 23:01:00,
2013-01-13 15:04:00,34.9,28.4,29.86,NW,315,0.0,0.4,77,0.00,,,0.01,WUHU216HW,2013-01-13 23:04:00,
2013-01-13 15:05:00,34.9,28.4,29.86,NW,315,0.0,0.4,77,0.00,,,0.01,WUHU216HW,2013-01-13 23:05:00,
2013-01-13 15:06:00,34.9,28.7,29.86,NW,315,0.0,0.0,78,0.00,,,0.01,WUHU216HW,2013-01-13 23:06:00,
2013-01-13 15:09:00,34.9,28.7,29.86,NW,315,0.0,0.0,78,0.00,,,0.01,WUHU216HW,2013-01-13 23:09:00,
2013-01-13 15:10:00,34.9,28.7,29.86,NW,315,0.0,0.0,78,0.00,,,0.01,WUHU216HW,2013-01-13 23:10:00,
2013-01-13 15:11:00,34.9,28.7,29.86,NW,315,0.0,0.0,78,0.00,,,0.01,WUHU216HW,2013-01-13 23:11:00,
2013-01-13 15:38:00,34.0,28.4,29.86,NW,315,0.0,0.0,80,0.00,,,0.01,WUHU216HW,2013-01-13 23:38:00,
2013-01-13 15:43:00,33.8,28.3,29.86,NW,315,0.0,0.0,80,0.00,,,0.01,WUHU216HW,2013-01-13 23:43:00,
2013-01-13 15:48:00,33.7,28.1,29.86,NW,315,0.0,0.0,80,0.00,,,0.01,WUHU216HW,2013-01-13 23:48:00,
2013-01-13 15:53:00,33.5,28.3,29.86,NW,315,0.0,0.0,81,0.00,,,0.01,WUHU216HW,2013-01-13 23:53:00,
2013-01-13 15:58:00,33.5,28.3,29.86,NW,315,0.0,0.0,81,0.00,,,0.01,WUHU216HW,2013-01-13 23:58:00,
2013-01-13 15:59:00,33.3,28.1,29.86,NW,315,0.0,0.0,81,0.00,,,0.01,WUHU216HW,2013-01-13 23:59:00,
2013-01-13 16:03:00,33.3,28.4,29.86,NW,315,0.0,0.0,82,0.00,,,0.01,WUHU216HW,2013-01-14 00:03:00,
2013-01-13 16:04:00,33.3,28.1,29.86,NW,315,0.0,0.0,81,0.00,,,0.01,WUHU216HW,2013-01-14 00:04:00,
2013-01-13 16:08:00,33.1,27.9,29.86,NW,315,0.0,0.0,81,0.00,,,0.01,WUHU216HW,2013-01-14 00:08:00,
2013-01-13 16:09:00,33.1,27.9,29.86,NW,315,0.0,0.0,81,0.00,,,0.01,WUHU216HW,2013-01-14 00:09:00,
2013-01-13 16:13:00,33.1,27.9,29.86,NW,315,0.0,0.0,81,0.00,,,0.01,WUHU216HW,2013-01-14 00:13:00,
2013-01-13 16:14:00,33.1,27.9,29.86,NW,315,0.0,0.0,81,0.00,,,0.01,WUHU216HW,2013-01-14 00:14:00,
2013-01-13 16:18:00,33.1,28.2,29.86,NW,315,0.0,0.0,82,0.00,,,0.01,WUHU216HW,2013-01-14 00:18:00,
2013-01-13 16:19:00,33.1,28.2,29.86,NW,315,0.0,0.0,82,0.00,,,0.01,WUHU216HW,2013-01-14 00:19:00,
2013-01-13 16:24:00,33.1,28.2,29.87,NW,315,0.0,0.0,82,0.00,,,0.01,WUHU216HW,2013-01-14 00:24:00,
2013-01-13 16:29:00,33.1,28.2,29.87,NW,315,0.0,0.0,82,0.00,,,0.01,WUHU216HW,2013-01-14 00:29:00,
2013-01-13 16:34:00,32.9,28.4,29.87,NW,315,0.0,0.0,83,0.00,,,0.01,WUHU216HW,2013-01-14 00:34:00,
2013-01-13 16:39:00,33.1,28.4,29.87,NW,315,0.0,0.0,83,0.00,,,0.01,WUHU216HW,2013-01-14 00:39:00,
2013-01-13 16:44:00,32.9,28.4,29.87,NW,315,0.0,0.0,83,0.00,,,0.01,WUHU216HW,2013-01-14 00:44:00,
2013-01-13 16:45:00,32.9,28.4,29.87,NW,315,0.0,0.0,83,0.00,,,0.01,WUHU216HW,2013-01-14 00:45:00,
2013-01-13 16:49:00,33.1,28.4,29.87,NW,315,0.0,0.0,83,0.00,,,0.01,WUHU216HW,2013-01-14 00:49:00,
2013-01-13 16:50:00,33.1,28.4,29.87,NW,315,0.0,0.0,83,0.00,,,0.01,WUHU216HW,2013-01-14 00:50:00,
2013-01-13 16:54:00,32.9,28.4,29.86,NW,315,0.0,0.0,83,0.00,,,0.01,WUHU216HW,2013-01-14 00:54:00,
2013-01-13 16:55:00,32.9,28.4,29.86,NW,315,0.0,0.0,83,0.00,,,0.01,WUHU216HW,2013-01-14 00:55:00,
2013-01-13 16:56:00,32.9,28.4,29.86,NW,315,0.0,0.0,83,0.00,,,0.01,WUHU216HW,2013-01-14 00:56:00,
2013-01-13 16:59:00,32.9,28.4,29.86,NW,315,0.0,0.0,83,0.00,,,0.01,WUHU216HW,2013-01-14 00:59:00,
2013-01-13 17:00:00,32.9,28.4,29.86,NW,315,0.0,0.0,83,0.00,,,0.01,WUHU216HW,2013-01-14 01:00:00,
2013-01-13 17:01:00,32.8,28.2,29.86,NW,315,0.0,0.0,83,0.00,,,0.01,WUHU216HW,2013-01-14 01:01:00,
2013-01-13 17:04:00,32.8,28.2,29.86,NW,315,0.0,0.0,83,0.00,,,0.01,WUHU216HW,2013-01-14 01:04:00,
2013-01-13 17:05:00,32.8,28.2,29.86,NW,315,0.0,0.0,83,0.00,,,0.01,WUHU216HW,2013-01-14 01:05:00,
2013-01-13 17:06:00,32.8,28.2,29.86,NW,315,0.0,0.0,83,0.00,,,0.01,WUHU216HW,2013-01-14 01:06:00,
2013-01-13 17:09:00,32.8,28.2,29.87,NW,315,0.0,0.0,83,0.00,,,0.01,WUHU216HW,2013-01-14 01:09:00,
2013-01-13 17:10:00,32.8,28.2,29.87,NW,315,0.0,0.0,83,0.00,,,0.01,WUHU216HW,2013-01-14 01:10:00,
2013-01-13 17:11:00,32.6,28.0,29.87,NW,315,0.0,0.0,83,0.00,,,0.01,WUHU216HW,2013-01-14 01:11:00,
2013-01-13 17:14:00,32.4,27.8,29.88,NW,315,0.0,0.0,83,0.00,,,0.01,WUHU216HW,2013-01-14 01:14:00,
2013-01-13 17:15:00,32.4,27.8,29.88,NW,315,0.0,0.0,83,0.00,,,0.01,WUHU216HW,2013-01-14 01:15:00,
2013-01-13 17:16:00,32.4,27.8,29.87,NW,315,0.0,0.0,83,0.00,,,0.01,WUHU216HW,2013-01-14 01:16:00,
2013-01-13 17:19:00,32.2,27.6,29.87,NW,315,0.0,0.0,83,0.00,,,0.01,WUHU216HW,2013-01-14 01:19:00,
2013-01-13 17:20:00,32.2,27.6,29.87,NW,315,0.0,0.0,83,0.00,,,0.01,WUHU216HW,2013-01-14 01:20:00,
2013-01-13 17:21:00,32.2,28.0,29.87,NW,315,0.0,0.0,84,0.00,,,0.01,WUHU216HW,2013-01-14 01:21:00,
2013-01-13 17:25:00,32.0,27.8,29.87,NW,315,0.0,0.0,84,0.00,,,0.01,WUHU216HW,2013-01-14 01:25:00,
2013-01-13 17:27:00,32.0,27.8,29.87,NW,315,0.0,0.0,84,0.00,,,0.01,WUHU216HW,2013-01-14 01:27:00,
2013-01-13 17:30:00,32.0,27.8,29.88,NW,315,0.0,0.0,84,0.00,,,0.01,WUHU216HW,2013-01-14 01:30:00,
2013-01-13 17:32:00,32.0,27.8,29.87,NW,315,0.0,0.0,84,0.00,,,0.01,WUHU216HW,2013-01-14 01:32:00,
2013-01-13 17:35:00,32.0,27.8,29.87,SSW,203,0.0,0.0,84,0.00,,,0.01,WUHU216HW,2013-01-14 01:35:00,
2013-01-13 17:36:00,32.0,27.8,29.87,SSW,203,0.0,0.0,84,0.00,,,0.01,WUHU216HW,2013-01-14 01:36:00,
2013-01-13 17:37:00,31.9,27.6,29.87,SSW,203,0.0,0.0,84,0.00,,,0.01,WUHU216HW,2013-01-14 01:37:00,
2013-01-13 17:40:00,31.9,27.6,29.87,SSW,203,0.0,0.0,84,0.00,,,0.01,WUHU216HW,2013-01-14 01:40:00,
2013-01-13 17:41:00,31.9,27.6,29.87,SSW,203,0.0,0.0,84,0.00,,,0.01,WUHU216HW,2013-01-14 01:41:00,
2013-01-13 17:42:00,31.9,27.9,29.87,SSW,203,0.0,0.0,85,0.00,,,0.01,WUHU216HW,2013-01-14 01:42:00,
2013-01-13 17:45:00,31.7,27.7,29.87,NW,315,0.0,0.0,85,0.00,,,0.01,WUHU216HW,2013-01-14 01:45:00,
2013-01-13 17:46:00,31.7,27.7,29.87,NW,315,0.0,0.0,85,0.00,,,0.01,WUHU216HW,2013-01-14 01:46:00,
2013-01-13 17:47:00,31.7,27.7,29.88,NW,315,0.0,0.0,85,0.00,,,0.01,WUHU216HW,2013-01-14 01:47:00,
2013-01-13 17:50:00,31.7,27.7,29.88,NW,315,0.0,0.0,85,0.00,,,0.01,WUHU216HW,2013-01-14 01:50:00,
2013-01-13 17:51:00,31.7,27.7,29.88,NW,315,0.0,0.0,85,0.00,,,0.01,WUHU216HW,2013-01-14 01:51:00,
2013-01-13 17:52:00,31.7,27.7,29.88,NW,315,0.0,0.0,85,0.00,,,0.01,WUHU216HW,2013-01-14 01:52:00,
2013-01-13 17:55:00,31.7,27.7,29.88,NW,315,0.0,0.0,85,0.00,,,0.01,WUHU216HW,2013-01-14 01:55:00,
2013-01-13 17:56:00,31.7,27.7,29.88,NW,315,0.0,0.0,85,0.00,,,0.01,WUHU216HW,2013-01-14 01:56:00,
2013-01-13 17:57:00,31.9,27.9,29.88,NW,315,0.0,0.0,85,0.00,,,0.01,WUHU216HW,2013-01-14 01:57:00,
2013-01-13 18:00:00,31.9,27.9,29.88,NW,315,0.0,0.0,85,0.00,,,0.01,WUHU216HW,2013-01-14 02:00:00,
2013-01-13 18:01:00,31.9,27.9,29.88,NW,315,0.0,0.0,85,0.00,,,0.01,WUHU216HW,2013-01-14 02:01:00,
2013-01-13 18:02:00,31.9,27.9,29.89,NW,315,0.0,0.0,85,0.00,,,0.01,WUHU216HW,2013-01-14 02:02:00,
2013-01-13 18:05:00,31.9,27.9,29.89,NW,315,0.0,0.0,85,0.00,,,0.01,WUHU216HW,2013-01-14 02:05:00,
2013-01-13 18:06:00,31.9,27.9,29.89,NW,315,0.0,0.0,85,0.00,,,0.01,WUHU216HW,2013-01-14 02:06:00,
2013-01-13 18:08:00,31.9,27.9,29.89,NW,315,0.0,0.0,85,0.00,,,0.01,WUHU216HW,2013-01-14 02:08:00,
2013-01-13 18:11:00,31.9,28.2,29.89,NW,315,0.0,0.0,86,0.00,,,0.01,WUHU216HW,2013-01-14 02:11:00,
2013-01-13 18:13:00,31.9,28.2,29.88,NW,315,0.0,0.0,86,0.00,,,0.01,WUHU216HW,2013-01-14 02:13:00,
2013-01-13 18:16:00,32.0,28.4,29.88,SSW,203,0.0,0.0,86,0.00,,,0.01,WUHU216HW,2013-01-14 02:16:00,
2013-01-13 18:18:00,32.0,28.4,29.88,SSW,203,0.0,0.0,86,0.00,,,0.01,WUHU216HW,2013-01-14 02:18:00,
2013-01-13 18:21:00,32.0,28.4,29.88,SSW,203,0.0,0.0,86,0.00,,,0.01,WUHU216HW,2013-01-14 02:21:00,
2013-01-13 18:23:00,32.0,28.4,29.88,SSW,203,0.0,0.0,86,0.00,,,0.01,WUHU216HW,2013-01-14 02:23:00,
2013-01-13 18:26:00,32.0,28.1,29.87,SSW,203,0.0,0.0,85,0.00,,,0.01,WUHU216HW,2013-01-14 02:26:00,
2013-01-13 18:28:00,32.0,28.1,29.87,SSW,203,0.0,0.0,85,0.00,,,0.01,WUHU216HW,2013-01-14 02:28:00,
2013-01-13 18:31:00,31.9,28.2,29.87,SSW,203,0.0,0.0,86,0.00,,,0.01,WUHU216HW,2013-01-14 02:31:00,
2013-01-13 18:33:00,31.9,28.2,29.86,SSW,203,0.0,0.0,86,0.00,,,0.01,WUHU216HW,2013-01-14 02:33:00,
2013-01-13 18:36:00,31.9,28.2,29.86,SSW,203,0.0,0.0,86,0.00,,,0.01,WUHU216HW,2013-01-14 02:36:00,
2013-01-13 18:37:00,31.9,28.2,29.86,SSW,203,0.0,0.0,86,0.00,,,0.01,WUHU216HW,2013-01-14 02:37:00,
2013-01-13 18:38:00,31.9,28.2,29.86,SSW,203,0.0,0.0,86,0.00,,,0.01,WUHU216HW,2013-01-14 02:38:00,
2013-01-13 18:41:00,31.9,28.2,29.86,SSW,203,0.0,0.0,86,0.00,,,0.01,WUHU216HW,2013-01-14 02:41:00,
2013-01-13 18:42:00,31.9,28.2,29.86,SSW,203,0.0,0.0,86,0.00,,,0.01,WUHU216HW,2013-01-14 02:42:00,
2013-01-13 18:43:00,31.9,28.2,29.86,SSW,203,0.0,0.0,86,0.00,,,0.01,WUHU216HW,2013-01-14 02:43:00,
2013-01-13 18:46:00,31.9,28.2,29.86,SE,135,0.0,0.0,86,0.00,,,0.01,WUHU216HW,2013-01-14 02:46:00,
2013-01-13 18:47:00,31.9,28.2,29.86,SE,135,0.0,0.0,86,0.00,,,0.01,WUHU216HW,2013-01-14 02:47:00,
2013-01-13 18:48:00,31.9,28.2,29.86,SE,135,0.0,0.0,86,0.00,,,0.01,WUHU216HW,2013-01-14 02:48:00,
2013-01-13 18:51:00,31.9,28.2,29.86,SSE,158,0.0,0.0,86,0.00,,,0.01,WUHU216HW,2013-01-14 02:51:00,
2013-01-13 18:52:00,31.9,28.2,29.86,SSE,158,0.0,0.0,86,0.00,,,0.01,WUHU216HW,2013-01-14 02:52:00,
2013-01-13 18:53:00,31.7,28.0,29.86,SE,135,0.0,0.0,86,0.00,,,0.01,WUHU216HW,2013-01-14 02:53:00,
2013-01-13 18:56:00,31.7,28.0,29.86,SSW,203,0.0,0.2,86,0.00,,,0.01,WUHU216HW,2013-01-14 02:56:00,
2013-01-13 18:57:00,31.7,28.0,29.86,SSE,158,0.0,0.2,86,0.00,,,0.01,WUHU216HW,2013-01-14 02:57:00,
2013-01-13 18:58:00,31.7,28.0,29.86,SSE,158,0.0,0.2,86,0.00,,,0.01,WUHU216HW,2013-01-14 02:58:00,
2013-01-13 19:01:00,31.5,27.8,29.86,SSE,158,0.0,0.2,86,0.00,,,0.01,WUHU216HW,2013-01-14 03:01:00,
2013-01-13 19:02:00,31.5,27.8,29.86,SSE,158,0.0,0.2,86,0.00,,,0.01,WUHU216HW,2013-01-14 03:02:00,
2013-01-13 19:04:00,31.3,27.6,29.86,SSE,158,0.0,0.2,86,0.00,,,0.01,WUHU216HW,2013-01-14 03:04:00,
2013-01-13 19:06:00,31.3,27.6,29.86,SSE,158,0.0,0.0,86,0.00,,,0.01,WUHU216HW,2013-01-14 03:06:00,
2013-01-13 19:07:00,31.3,27.6,29.86,SSE,158,0.0,0.0,86,0.00,,,0.01,WUHU216HW,2013-01-14 03:07:00,
2013-01-13 19:09:00,31.1,27.5,29.86,SSE,158,0.0,0.0,86,0.00,,,0.01,WUHU216HW,2013-01-14 03:09:00,
2013-01-13 19:11:00,31.0,27.3,29.86,SSE,158,0.0,0.0,86,0.00,,,0.01,WUHU216HW,2013-01-14 03:11:00,
2013-01-13 19:12:00,31.0,27.3,29.85,SSE,158,0.0,0.0,86,0.00,,,0.01,WUHU216HW,2013-01-14 03:12:00,
2013-01-13 19:14:00,31.0,27.3,29.85,ESE,113,0.0,0.0,86,0.00,,,0.01,WUHU216HW,2013-01-14 03:14:00,
2013-01-13 19:16:00,31.0,27.3,29.86,ENE,68,0.0,0.0,86,0.00,,,0.01,WUHU216HW,2013-01-14 03:16:00,
2013-01-13 19:17:00,30.8,27.1,29.86,ENE,68,0.0,0.0,86,0.00,,,0.01,WUHU216HW,2013-01-14 03:17:00,
2013-01-13 19:19:00,30.8,27.1,29.86,ENE,68,0.0,0.0,86,0.00,,,0.01,WUHU216HW,2013-01-14 03:19:00,
2013-01-13 19:21:00,30.6,26.9,29.86,ENE,68,0.0,0.0,86,0.00,,,0.01,WUHU216HW,2013-01-14 03:21:00,
2013-01-13 19:22:00,30.6,26.9,29.86,ENE,68,0.0,0.0,86,0.00,,,0.01,WUHU216HW,2013-01-14 03:22:00,
2013-01-13 19:23:00,30.6,26.9,29.86,ENE,68,0.0,0.0,86,0.00,,,0.01,WUHU216HW,2013-01-14 03:23:00,
2013-01-13 19:24:00,30.6,26.9,29.86,ENE,68,0.0,0.0,86,0.00,,,0.01,WUHU216HW,2013-01-14 03:24:00,
2013-01-13 19:26:00,30.6,26.9,29.87,ENE,68,0.0,0.0,86,0.00,,,0.01,WUHU216HW,2013-01-14 03:26:00,
2013-01-13 19:27:00,30.6,27.2,29.87,ENE,68,0.0,0.0,87,0.00,,,0.01,WUHU216HW,2013-01-14 03:27:00,
2013-01-13 19:28:00,30.6,27.2,29.87,ENE,68,0.0,0.0,87,0.00,,,0.01,WUHU216HW,2013-01-14 03:28:00,
2013-01-13 19:29:00,30.6,27.2,29.87,ENE,68,0.0,0.0,87,0.00,,,0.01,WUHU216HW,2013-01-14 03:29:00,
2013-01-13 19:31:00,30.6,27.2,29.87,ENE,68,0.0,0.0,87,0.00,,,0.01,WUHU216HW,2013-01-14 03:31:00,
2013-01-13 19:32:00,30.4,27.0,29.87,ENE,68,0.0,0.0,87,0.00,,,0.01,WUHU216HW,2013-01-14 03:32:00,
2013-01-13 19:33:00,30.4,27.0,29.87,ENE,68,0.0,0.0,87,0.00,,,0.01,WUHU216HW,2013-01-14 03:33:00,
2013-01-13 19:34:00,30.4,27.0,29.87,ENE,68,0.0,0.0,87,0.00,,,0.01,WUHU216HW,2013-01-14 03:34:00,
2013-01-13 19:36:00,30.2,26.8,29.87,ENE,68,0.0,0.0,87,0.00,,,0.01,WUHU216HW,2013-01-14 03:36:00,
2013-01-13 19:38:00,30.2,26.8,29.87,ENE,68,0.0,0.0,87,0.00,,,0.01,WUHU216HW,2013-01-14 03:38:00,
2013-01-13 19:39:00,30.2,26.6,29.87,ENE,68,0.0,0.0,86,0.00,,,0.01,WUHU216HW,2013-01-14 03:39:00,
2013-01-13 19:41:00,30.1,26.4,29.87,ENE,68,0.0,0.0,86,0.00,,,0.01,WUHU216HW,2013-01-14 03:41:00,
2013-01-13 19:43:00,30.1,26.4,29.88,ENE,68,0.0,0.0,86,0.00,,,0.01,WUHU216HW,2013-01-14 03:43:00,
2013-01-13 19:44:00,30.1,26.4,29.88,ENE,68,0.0,0.0,86,0.00,,,0.01,WUHU216HW,2013-01-14 03:44:00,
2013-01-13 19:46:00,30.1,26.6,29.88,ENE,68,0.0,0.0,87,0.00,,,0.01,WUHU216HW,2013-01-14 03:46:00,
2013-01-13 19:48:00,30.1,26.6,29.88,ENE,68,0.0,0.0,87,0.00,,,0.01,WUHU216HW,2013-01-14 03:48:00,
2013-01-13 19:49:00,30.1,26.6,29.88,ENE,68,0.0,0.0,87,0.00,,,0.01,WUHU216HW,2013-01-14 03:49:00,
2013-01-13 19:51:00,30.1,26.6,29.88,ENE,68,0.0,0.0,87,0.00,,,0.01,WUHU216HW,2013-01-14 03:51:00,
2013-01-13 19:53:00,29.9,26.5,29.88,ENE,68,0.0,0.0,87,0.00,,,0.01,WUHU216HW,2013-01-14 03:53:00,
2013-01-13 19:55:00,29.9,26.5,29.88,ENE,68,0.0,0.0,87,0.00,,,0.01,WUHU216HW,2013-01-14 03:55:00,
2013-01-13 19:56:00,29.9,26.5,29.88,ENE,68,0.0,0.0,87,0.00,,,0.01,WUHU216HW,2013-01-14 03:56:00,
2013-01-13 19:58:00,29.9,26.5,29.88,ENE,68,0.0,0.0,87,0.00,,,0.01,WUHU216HW,2013-01-14 03:58:00,
2013-01-13 20:00:00,29.9,26.5,29.88,ENE,68,0.0,0.0,87,0.00,,,0.01,WUHU216HW,2013-01-14 04:00:00,
2013-01-13 20:02:00,30.1,26.6,29.88,ENE,68,0.0,0.0,87,0.00,,,0.01,WUHU216HW,2013-01-14 04:02:00,
2013-01-13 20:03:00,30.1,26.6,29.88,ENE,68,0.0,0.0,87,0.00,,,0.01,WUHU216HW,2013-01-14 04:03:00,
2013-01-13 20:05:00,30.1,26.6,29.88,ENE,68,0.0,0.0,87,0.00,,,0.01,WUHU216HW,2013-01-14 04:05:00,
2013-01-13 20:07:00,30.1,27.0,29.88,ENE,68,0.0,0.0,88,0.00,,,0.01,WUHU216HW,2013-01-14 04:07:00,
2013-01-13 20:08:00,30.2,26.8,29.88,ENE,68,0.0,0.0,87,0.00,,,0.01,WUHU216HW,2013-01-14 04:08:00,
2013-01-13 20:10:00,30.1,26.6,29.88,ENE,68,0.0,0.0,87,0.00,,,0.01,WUHU216HW,2013-01-14 04:10:00,
2013-01-13 20:12:00,30.2,26.8,29.88,ENE,68,0.0,0.0,87,0.00,,,0.01,WUHU216HW,2013-01-14 04:12:00,
2013-01-13 20:13:00,30.2,26.8,29.88,ENE,68,0.0,0.0,87,0.00,,,0.01,WUHU216HW,2013-01-14 04:13:00,
2013-01-13 20:14:00,30.2,26.8,29.88,ENE,68,0.0,0.0,87,0.00,,,0.01,WUHU216HW,2013-01-14 04:14:00,
2013-01-13 20:16:00,30.2,26.8,29.88,ENE,68,0.0,0.0,87,0.00,,,0.01,WUHU216HW,2013-01-14 04:16:00,
2013-01-13 20:18:00,30.1,26.6,29.88,ENE,68,0.0,0.0,87,0.00,,,0.01,WUHU216HW,2013-01-14 04:18:00,
2013-01-13 20:19:00,30.2,26.8,29.88,ENE,68,0.0,0.0,87,0.00,,,0.01,WUHU216HW,2013-01-14 04:19:00,
2013-01-13 20:21:00,30.2,26.8,29.88,ENE,68,0.0,0.0,87,0.00,,,0.01,WUHU216HW,2013-01-14 04:21:00,
2013-01-13 20:23:00,30.2,26.8,29.88,ENE,68,0.0,0.0,87,0.00,,,0.01,WUHU216HW,2013-01-14 04:23:00,
2013-01-13 20:24:00,30.1,26.6,29.88,NE,45,0.0,0.0,87,0.00,,,0.01,WUHU216HW,2013-01-14 04:24:00,
2013-01-13 20:26:00,30.1,26.6,29.88,NE,45,0.0,0.0,87,0.00,,,0.01,WUHU216HW,2013-01-14 04:26:00,
2013-01-13 20:28:00,30.1,26.6,29.88,East,90,0.0,0.0,87,0.00,,,0.01,WUHU216HW,2013-01-14 04:28:00,
2013-01-13 20:29:00,30.1,26.6,29.88,East,90,0.0,0.0,87,0.00,,,0.01,WUHU216HW,2013-01-14 04:29:00,
2013-01-13 20:31:00,30.1,26.6,29.89,ENE,68,0.0,0.0,87,0.00,,,0.01,WUHU216HW,2013-01-14 04:31:00,
2013-01-13 20:33:00,30.1,26.6,29.89,ENE,68,0.0,0.0,87,0.00,,,0.01,WUHU216HW,2013-01-14 04:33:00,
2013-01-13 20:34:00,30.1,26.6,29.89,ENE,68,0.0,0.0,87,0.00,,,0.01,WUHU216HW,2013-01-14 04:34:00,
2013-01-13 20:37:00,30.1,26.6,29.88,ENE,68,0.0,0.0,87,0.00,,,0.01,WUHU216HW,2013-01-14 04:37:00,
2013-01-13 20:38:00,30.1,26.6,29.88,ENE,68,0.0,0.0,87,0.00,,,0.01,WUHU216HW,2013-01-14 04:38:00,
2013-01-13 20:39:00,30.1,26.6,29.88,ENE,68,0.0,0.0,87,0.00,,,0.01,WUHU216HW,2013-01-14 04:39:00,
2013-01-13 20:42:00,30.1,26.6,29.88,ENE,68,0.0,0.0,87,0.00,,,0.01,WUHU216HW,2013-01-14 04:42:00,
2013-01-13 20:44:00,30.1,26.6,29.88,ENE,68,0.0,0.0,87,0.00,,,0.01,WUHU216HW,2013-01-14 04:44:00,
2013-01-13 20:45:00,30.1,26.6,29.88,ENE,68,0.0,0.0,87,0.00,,,0.01,WUHU216HW,2013-01-14 04:45:00,
2013-01-13 20:47:00,30.1,26.6,29.88,ENE,68,0.0,0.0,87,0.00,,,0.01,WUHU216HW,2013-01-14 04:47:00,
2013-01-13 20:49:00,29.9,26.5,29.88,ENE,68,0.0,0.0,87,0.00,,,0.01,WUHU216HW,2013-01-14 04:49:00,
2013-01-13 20:50:00,29.9,26.5,29.88,ENE,68,0.0,0.0,87,0.00,,,0.01,WUHU216HW,2013-01-14 04:50:00,
2013-01-13 20:52:00,29.9,26.5,29.88,ENE,68,0.0,0.0,87,0.00,,,0.01,WUHU216HW,2013-01-14 04:52:00,
2013-01-13 20:54:00,29.9,26.5,29.88,ENE,68,0.0,0.0,87,0.00,,,0.01,WUHU216HW,2013-01-14 04:54:00,
2013-01-13 20:55:00,29.9,26.5,29.88,ENE,68,0.0,0.0,87,0.00,,,0.01,WUHU216HW,2013-01-14 04:55:00,
2013-01-13 20:57:00,29.9,26.5,29.88,ENE,68,0.0,0.0,87,0.00,,,0.01,WUHU216HW,2013-01-14 04:57:00,
2013-01-13 20:59:00,29.7,26.3,29.88,ENE,68,0.0,0.0,87,0.00,,,0.01,WUHU216HW,2013-01-14 04:59:00,
2013-01-13 21:00:00,29.7,26.3,29.87,ENE,68,0.0,0.0,87,0.00,,,0.01,WUHU216HW,2013-01-14 05:00:00,
2013-01-13 21:02:00,29.7,26.3,29.87,ENE,68,0.0,0.0,87,0.00,,,0.01,WUHU216HW,2013-01-14 05:02:00,
2013-01-13 21:03:00,29.7,26.3,29.87,ENE,68,0.0,0.0,87,0.00,,,0.01,WUHU216HW,2013-01-14 05:03:00,
2013-01-13 21:05:00,29.7,26.3,29.87,ENE,68,0.0,0.0,87,0.00,,,0.01,WUHU216HW,2013-01-14 05:05:00,
2013-01-13 21:07:00,29.7,26.3,29.87,ENE,68,0.0,0.0,87,0.00,,,0.01,WUHU216HW,2013-01-14 05:07:00,
2013-01-13 21:08:00,29.7,26.7,29.87,ENE,68,0.0,0.0,88,0.00,,,0.01,WUHU216HW,2013-01-14 05:08:00,
2013-01-13 21:10:00,29.7,26.7,29.87,ENE,68,0.0,0.0,88,0.00,,,0.01,WUHU216HW,2013-01-14 05:10:00,
2013-01-13 21:12:00,29.5,26.5,29.87,ENE,68,0.0,0.0,88,0.00,,,0.01,WUHU216HW,2013-01-14 05:12:00,
2013-01-13 21:13:00,29.5,26.1,29.87,ENE,68,0.0,0.0,87,0.00,,,0.01,WUHU216HW,2013-01-14 05:13:00,
2013-01-13 21:15:00,29.5,26.1,29.87,ENE,68,0.0,0.0,87,0.00,,,0.01,WUHU216HW,2013-01-14 05:15:00,
2013-01-13 21:17:00,29.5,26.5,29.88,ENE,68,0.0,0.0,88,0.00,,,0.01,WUHU216HW,2013-01-14 05:17:00,
2013-01-13 21:18:00,29.5,26.5,29.88,ENE,68,0.0,0.0,88,0.00,,,0.01,WUHU216HW,2013-01-14 05:18:00,
2013-01-13 21:20:00,29.5,26.5,29.88,ENE,68,0.0,0.0,88,0.00,,,0.01,WUHU216HW,2013-01-14 05:20:00,
2013-01-13 21:22:00,29.5,26.5,29.87,ENE,68,0.0,0.0,88,0.00,,,0.01,WUHU216HW,2013-01-14 05:22:00,
2013-01-13 21:23:00,29.3,26.3,29.88,ENE,68,0.0,0.0,88,0.00,,,0.01,WUHU216HW,2013-01-14 05:23:00,
2013-01-13 21:25:00,29.5,26.5,29.88,ENE,68,0.0,0.0,88,0.00,,,0.01,WUHU216HW,2013-01-14 05:25:00,
2013-01-13 21:26:00,29.5,26.5,29.88,ENE,68,0.0,0.0,88,0.00,,,0.01,WUHU216HW,2013-01-14 05:26:00,
2013-01-13 21:27:00,29.5,26.5,29.88,ENE,68,0.0,0.0,88,0.00,,,0.01,WUHU216HW,2013-01-14 05:27:00,
2013-01-13 21:29:00,29.5,26.5,29.88,ENE,68,0.0,0.0,88,0.00,,,0.01,WUHU216HW,2013-01-14 05:29:00,
2013-01-13 21:30:00,29.5,26.5,29.88,ENE,68,0.0,0.0,88,0.00,,,0.01,WUHU216HW,2013-01-14 05:30:00,
2013-01-13 21:31:00,29.5,26.5,29.88,ENE,68,0.0,0.0,88,0.00,,,0.01,WUHU216HW,2013-01-14 05:31:00,
2013-01-13 21:32:00,29.5,26.5,29.88,ENE,68,0.0,0.0,88,0.00,,,0.01,WUHU216HW,2013-01-14 05:32:00,
2013-01-13 21:34:00,29.5,26.5,29.88,ENE,68,0.0,0.0,88,0.00,,,0.01,WUHU216HW,2013-01-14 05:34:00,
2013-01-13 21:35:00,29.5,26.5,29.88,ENE,68,0.0,0.0,88,0.00,,,0.01,WUHU216HW,2013-01-14 05:35:00,
2013-01-13 21:36:00,29.5,26.5,29.88,ENE,68,0.0,0.0,88,0.00,,,0.01,WUHU216HW,2013-01-14 05:36:00,
2013-01-13 21:38:00,29.5,26.5,29.88,ENE,68,0.0,0.0,88,0.00,,,0.01,WUHU216HW,2013-01-14 05:38:00,
2013-01-13 21:39:00,29.5,26.5,29.88,ENE,68,0.0,0.0,88,0.00,,,0.01,WUHU216HW,2013-01-14 05:39:00,
2013-01-13 21:41:00,29.5,26.5,29.88,ENE,68,0.0,0.0,88,0.00,,,0.01,WUHU216HW,2013-01-14 05:41:00,
2013-01-13 21:43:00,29.5,26.5,29.88,ENE,68,0.0,0.0,88,0.00,,,0.01,WUHU216HW,2013-01-14 05:43:00,
2013-01-13 21:44:00,29.5,26.5,29.88,ENE,68,0.0,0.0,88,0.00,,,0.01,WUHU216HW,2013-01-14 05:44:00,
2013-01-13 21:46:00,29.5,26.5,29.88,ENE,68,0.0,0.0,88,0.00,,,0.01,WUHU216HW,2013-01-14 05:46:00,
2013-01-13 21:48:00,29.5,26.5,29.88,ENE,68,0.0,0.0,88,0.00,,,0.01,WUHU216HW,2013-01-14 05:48:00,
2013-01-13 21:49:00,29.5,26.5,29.88,ENE,68,0.0,0.0,88,0.00,,,0.01,WUHU216HW,2013-01-14 05:49:00,
2013-01-13 21:51:00,29.7,26.7,29.88,ENE,68,0.0,0.0,88,0.00,,,0.01,WUHU216HW,2013-01-14 05:51:00,
2013-01-13 21:54:00,29.7,26.7,29.88,ENE,68,0.0,0.0,88,0.00,,,0.01,WUHU216HW,2013-01-14 05:54:00,
2013-01-13 21:56:00,29.7,26.7,29.88,ENE,68,0.0,0.0,88,0.00,,,0.01,WUHU216HW,2013-01-14 05:56:00,
2013-01-13 21:59:00,29.7,26.7,29.88,ENE,68,0.0,0.0,88,0.00,,,0.01,WUHU216HW,2013-01-14 05:59:00,
2013-01-13 22:00:00,29.7,26.7,29.88,ENE,68,0.0,0.0,88,0.00,,,0.01,WUHU216HW,2013-01-14 06:00:00,
2013-01-13 22:01:00,29.7,26.7,29.88,ENE,68,0.0,0.0,88,0.00,,,0.01,WUHU216HW,2013-01-14 06:01:00,
2013-01-13 22:04:00,29.7,26.7,29.88,ENE,68,0.0,0.0,88,0.00,,,0.01,WUHU216HW,2013-01-14 06:04:00,
2013-01-13 22:05:00,29.7,26.7,29.88,ENE,68,0.0,0.0,88,0.00,,,0.01,WUHU216HW,2013-01-14 06:05:00,
2013-01-13 22:06:00,29.7,26.7,29.88,ENE,68,0.0,0.0,88,0.00,,,0.01,WUHU216HW,2013-01-14 06:06:00,
2013-01-13 22:07:00,29.7,26.7,29.88,ENE,68,0.0,0.0,88,0.00,,,0.01,WUHU216HW,2013-01-14 06:07:00,
2013-01-13 22:09:00,29.5,26.5,29.88,ENE,68,0.0,0.0,88,0.00,,,0.01,WUHU216HW,2013-01-14 06:09:00,
2013-01-13 22:10:00,29.5,26.5,29.88,ENE,68,0.0,0.0,88,0.00,,,0.01,WUHU216HW,2013-01-14 06:10:00,
2013-01-13 22:11:00,29.5,26.5,29.88,ENE,68,0.0,0.0,88,0.00,,,0.01,WUHU216HW,2013-01-14 06:11:00,
2013-01-13 22:12:00,29.5,26.5,29.88,ENE,68,0.0,0.0,88,0.00,,,0.01,WUHU216HW,2013-01-14 06:12:00,
2013-01-13 22:14:00,29.3,26.3,29.88,ENE,68,0.0,0.0,88,0.00,,,0.01,WUHU216HW,2013-01-14 06:14:00,
2013-01-13 22:15:00,29.3,26.3,29.88,ENE,68,0.0,0.0,88,0.00,,,0.01,WUHU216HW,2013-01-14 06:15:00,
2013-01-13 22:16:00,29.3,26.3,29.87,ENE,68,0.0,0.0,88,0.00,,,0.01,WUHU216HW,2013-01-14 06:16:00,
2013-01-13 22:17:00,29.2,26.1,29.87,ENE,68,0.0,0.0,88,0.00,,,0.01,WUHU216HW,2013-01-14 06:17:00,
2013-01-13 22:19:00,29.2,26.1,29.88,ENE,68,0.0,0.0,88,0.00,,,0.01,WUHU216HW,2013-01-14 06:19:00,
2013-01-13 22:21:00,29.2,26.1,29.88,ENE,68,0.0,0.0,88,0.00,,,0.01,WUHU216HW,2013-01-14 06:21:00,
2013-01-13 22:22:00,29.2,26.1,29.88,ENE,68,0.0,0.0,88,0.00,,,0.01,WUHU216HW,2013-01-14 06:22:00,
2013-01-13 22:24:00,29.0,25.9,29.88,ENE,68,0.0,0.0,88,0.00,,,0.01,WUHU216HW,2013-01-14 06:24:00,
2013-01-13 22:26:00,29.0,25.9,29.88,ENE,68,0.0,0.0,88,0.00,,,0.01,WUHU216HW,2013-01-14 06:26:00,
2013-01-13 22:27:00,29.0,25.9,29.88,ENE,68,0.0,0.0,88,0.00,,,0.01,WUHU216HW,2013-01-14 06:27:00,
2013-01-13 22:29:00,28.8,25.8,29.89,ENE,68,0.0,0.0,88,0.00,,,0.01,WUHU216HW,2013-01-14 06:29:00,
2013-01-13 22:31:00,28.8,25.8,29.89,ENE,68,0.0,0.0,88,0.00,,,0.01,WUHU216HW,2013-01-14 06:31:00,
2013-01-13 22:32:00,28.8,25.8,29.89,ENE,68,0.0,0.0,88,0.00,,,0.01,WUHU216HW,2013-01-14 06:32:00,
2013-01-13 22:34:00,28.6,25.6,29.89,ENE,68,0.0,0.0,88,0.00,,,0.01,WUHU216HW,2013-01-14 06:34:00,
2013-01-13 22:36:00,28.6,25.6,29.89,ENE,68,0.0,0.0,88,0.00,,,0.01,WUHU216HW,2013-01-14 06:36:00,
2013-01-13 22:37:00,28.6,25.6,29.89,ENE,68,0.0,0.0,88,0.00,,,0.01,WUHU216HW,2013-01-14 06:37:00,
2013-01-13 22:40:00,28.6,25.6,29.90,ENE,68,0.0,0.0,88,0.00,,,0.01,WUHU216HW,2013-01-14 06:40:00,
2013-01-13 22:41:00,28.6,25.6,29.90,ENE,68,0.0,0.0,88,0.00,,,0.01,WUHU216HW,2013-01-14 06:41:00,
2013-01-13 22:42:00,28.6,25.6,29.89,ENE,68,0.0,0.0,88,0.00,,,0.01,WUHU216HW,2013-01-14 06:42:00,
2013-01-13 22:45:00,28.6,25.8,29.89,ENE,68,0.4,0.4,89,0.00,,,0.01,WUHU216HW,2013-01-14 06:45:00,
2013-01-13 22:46:00,28.6,25.8,29.89,ENE,68,0.0,0.4,89,0.00,,,0.01,WUHU216HW,2013-01-14 06:46:00,
2013-01-13 22:47:00,28.8,26.0,29.89,ENE,68,0.0,0.4,89,0.00,,,0.01,WUHU216HW,2013-01-14 06:47:00,
2013-01-13 22:50:00,28.8,26.0,29.89,ENE,68,0.2,0.4,89,0.00,,,0.01,WUHU216HW,2013-01-14 06:50:00,
2013-01-13 22:51:00,28.8,26.0,29.89,ENE,68,0.2,0.4,89,0.00,,,0.01,WUHU216HW,2013-01-14 06:51:00,
2013-01-13 22:52:00,28.8,26.0,29.89,ENE,68,0.0,0.4,89,0.00,,,0.01,WUHU216HW,2013-01-14 06:52:00,
2013-01-13 22:55:00,28.8,26.0,29.89,ENE,68,0.0,0.2,89,0.00,,,0.01,WUHU216HW,2013-01-14 06:55:00,
2013-01-13 22:56:00,28.8,26.0,29.89,ENE,68,0.0,0.2,89,0.00,,,0.01,WUHU216HW,2013-01-14 06:56:00,
2013-01-13 22:57:00,28.8,26.0,29.88,ENE,68,0.0,0.2,89,0.00,,,0.01,WUHU216HW,2013-01-14 06:57:00,
2013-01-13 23:00:00,28.6,25.8,29.89,ENE,68,0.0,0.2,89,0.00,,,0.01,WUHU216HW,2013-01-14 07:00:00,
2013-01-13 23:02:00,28.6,25.8,29.89,ENE,68,0.0,0.0,89,0.00,,,0.01,WUHU216HW,2013-01-14 07:02:00,
2013-01-13 23:05:00,28.6,25.8,29.89,ENE,68,0.0,0.0,89,0.00,,,0.01,WUHU216HW,2013-01-14 07:05:00,
2013-01-13 23:07:00,28.4,25.7,29.89,ENE,68,0.0,0.0,89,0.00,,,0.01,WUHU216HW,2013-01-14 07:07:00,
2013-01-13 23:11:00,28.4,25.7,29.88,ENE,68,0.0,0.0,89,0.00,,,0.01,WUHU216HW,2013-01-14 07:11:00,
2013-01-13 23:12:00,28.4,25.7,29.88,ENE,68,0.0,0.0,89,0.00,,,0.01,WUHU216HW,2013-01-14 07:12:00,
2013-01-13 23:13:00,28.4,25.7,29.88,ENE,68,0.0,0.0,89,0.00,,,0.01,WUHU216HW,2013-01-14 07:13:00,
2013-01-13 23:16:00,28.3,25.5,29.88,ENE,68,0.0,0.0,89,0.00,,,0.01,WUHU216HW,2013-01-14 07:16:00,
2013-01-13 23:17:00,28.3,25.5,29.88,ENE,68,0.0,0.0,89,0.00,,,0.01,WUHU216HW,2013-01-14 07:17:00,
2013-01-13 23:18:00,28.3,25.5,29.88,ENE,68,0.0,0.0,89,0.00,,,0.01,WUHU216HW,2013-01-14 07:18:00,
2013-01-13 23:19:00,28.3,25.5,29.88,ENE,68,0.0,0.0,89,0.00,,,0.01,WUHU216HW,2013-01-14 07:19:00,
2013-01-13 23:21:00,28.3,25.5,29.88,ENE,68,0.0,0.0,89,0.00,,,0.01,WUHU216HW,2013-01-14 07:21:00,
2013-01-13 23:22:00,28.1,25.3,29.88,ENE,68,0.0,0.0,89,0.00,,,0.01,WUHU216HW,2013-01-14 07:22:00,
2013-01-13 23:23:00,28.1,25.3,29.88,ENE,68,0.0,0.0,89,0.00,,,0.01,WUHU216HW,2013-01-14 07:23:00,
2013-01-13 23:24:00,28.1,25.3,29.88,ENE,68,0.0,0.0,89,0.00,,,0.01,WUHU216HW,2013-01-14 07:24:00,
2013-01-13 23:27:00,28.1,25.3,29.88,ENE,68,0.0,0.0,89,0.00,,,0.01,WUHU216HW,2013-01-14 07:27:00,
2013-01-13 23:28:00,28.1,25.3,29.88,ENE,68,0.0,0.0,89,0.00,,,0.01,WUHU216HW,2013-01-14 07:28:00,
2013-01-13 23:29:00,28.1,25.3,29.88,ENE,68,0.0,0.0,89,0.00,,,0.01,WUHU216HW,2013-01-14 07:29:00,
2013-01-13 23:32:00,28.1,25.3,29.88,ENE,68,0.0,0.0,89,0.00,,,0.01,WUHU216HW,2013-01-14 07:32:00,
2013-01-13 23:33:00,27.9,25.1,29.88,ENE,68,0.0,0.0,89,0.00,,,0.01,WUHU216HW,2013-01-14 07:33:00,
2013-01-13 23:34:00,27.9,25.1,29.88,ENE,68,0.0,0.0,89,0.00,,,0.01,WUHU216HW,2013-01-14 07:34:00,
2013-01-13 23:37:00,27.9,25.1,29.89,ENE,68,0.0,0.0,89,0.00,,,0.01,WUHU216HW,2013-01-14 07:37:00,
2013-01-13 23:38:00,27.9,25.1,29.88,ENE,68,0.0,0.0,89,0.00,,,0.01,WUHU216HW,2013-01-14 07:38:00,
2013-01-13 23:39:00,27.9,25.1,29.88,ENE,68,0.0,0.0,89,0.00,,,0.01,WUHU216HW,2013-01-14 07:39:00,
2013-01-13 23:42:00,27.9,25.4,29.88,ENE,68,0.0,0.0,90,0.00,,,0.01,WUHU216HW,2013-01-14 07:42:00,
2013-01-13 23:43:00,27.9,25.4,29.88,ENE,68,0.0,0.0,90,0.00,,,0.01,WUHU216HW,2013-01-14 07:43:00,
2013-01-13 23:44:00,28.1,25.6,29.88,ENE,68,0.0,0.0,90,0.00,,,0.01,WUHU216HW,2013-01-14 07:44:00,
2013-01-13 23:47:00,28.1,25.6,29.88,ENE,68,0.0,0.0,90,0.00,,,0.01,WUHU216HW,2013-01-14 07:47:00,
2013-01-13 23:48:00,28.1,25.6,29.88,ENE,68,0.0,0.0,90,0.00,,,0.01,WUHU216HW,2013-01-14 07:48:00,
2013-01-13 23:49:00,28.1,25.6,29.88,ENE,68,0.0,0.0,90,0.00,,,0.01,WUHU216HW,2013-01-14 07:49:00,
2013-01-13 23:52:00,28.1,25.6,29.88,ENE,68,0.0,0.0,90,0.00,,,0.01,WUHU216HW,2013-01-14 07:52:00,
2013-01-13 23:53:00,28.1,25.6,29.88,ENE,68,0.0,0.0,90,0.00,,,0.01,WUHU216HW,2013-01-14 07:53:00,
2013-01-13 23:54:00,28.1,25.6,29.88,ENE,68,0.0,0.0,90,0.00,,,0.01,WUHU216HW,2013-01-14 07:54:00,
2013-01-13 23:57:00,28.1,25.6,29.87,ENE,68,0.0,0.0,90,0.00,,,0.01,WUHU216HW,2013-01-14 07:57:00,
2013-01-13 23:58:00,28.1,25.6,29.87,ENE,68,0.0,0.0,90,0.00,,,0.01,WUHU216HW,2013-01-14 07:58:00,